<?xml version="1.0" encoding="UTF-8" standalone="no" ?>
<gpx xmlns="http://www.topografix.com/GPX/1/1" xmlns:xsi="http://www.w3.org/2001/XMLSchema-instance" xsi:schemaLocation="http://www.topografix.com/GPX/1/1 http://www.topografix.com/GPX/1/1/gpx.xsd" version="1.1" creator="VisuGPX - https://www.visugpx.com">
  <metadata>
    <name>Gourmier - Abeau - Sarbuscles</name>
    <desc><![CDATA[Rando dans forêt de pins maritimes idéale par grand soleil. des passages près de torrents cascadants - de superbes hameaux isolés - peu de dénivelé sur la majorité du parcours sauf la montée sur Sabuscles qui se fait par des marches taillées dans les faÿces (environ 150 marches) assez difficiles. attention aux vipères dans ce passage ... faites exceptionnellement du bruit.]]></desc>
  </metadata>
  <trk>
    <name><![CDATA[Gourmier-Abeau-Sabuscle]]></name>
    <cmt><![CDATA[Parcours sous les pins maritimes bien adapté par plein soleil. De jolis torrents. La montée sur Sabuscle se fait de faÿce en faÿce (environ 150 marches en schiste) très raide !]]></cmt>
    <trkseg>
      <trkpt lat="44.36568" lon="4.09437">
        <ele>273.4</ele>
        <time>2012-05-29T12:00:08Z</time>
      </trkpt>
      <trkpt lat="44.36568" lon="4.09437">
        <ele>321.5</ele>
        <time>2012-05-29T12:00:17Z</time>
      </trkpt>
      <trkpt lat="44.36559" lon="4.09439">
        <ele>327.25</ele>
        <time>2012-05-29T12:00:31Z</time>
      </trkpt>
      <trkpt lat="44.3655" lon="4.09444">
        <ele>328</ele>
        <time>2012-05-29T12:00:41Z</time>
      </trkpt>
      <trkpt lat="44.36541" lon="4.09447">
        <ele>329.25</ele>
        <time>2012-05-29T12:00:49Z</time>
      </trkpt>
      <trkpt lat="44.36529" lon="4.0946">
        <ele>327.25</ele>
        <time>2012-05-29T12:01:35Z</time>
      </trkpt>
      <trkpt lat="44.36519" lon="4.09468">
        <ele>326.5</ele>
        <time>2012-05-29T12:01:36Z</time>
      </trkpt>
      <trkpt lat="44.36509" lon="4.09475">
        <ele>325.75</ele>
        <time>2012-05-29T12:01:37Z</time>
      </trkpt>
      <trkpt lat="44.36499" lon="4.09483">
        <ele>325</ele>
        <time>2012-05-29T12:01:38Z</time>
      </trkpt>
      <trkpt lat="44.36489" lon="4.09482">
        <ele>325</ele>
        <time>2012-05-29T12:01:43Z</time>
      </trkpt>
      <trkpt lat="44.3648" lon="4.0948">
        <ele>325.75</ele>
        <time>2012-05-29T12:01:50Z</time>
      </trkpt>
      <trkpt lat="44.3647" lon="4.09478">
        <ele>326.25</ele>
        <time>2012-05-29T12:01:55Z</time>
      </trkpt>
      <trkpt lat="44.3646" lon="4.09475">
        <ele>327</ele>
        <time>2012-05-29T12:02:04Z</time>
      </trkpt>
      <trkpt lat="44.36451" lon="4.09473">
        <ele>327</ele>
        <time>2012-05-29T12:02:10Z</time>
      </trkpt>
      <trkpt lat="44.36441" lon="4.0947">
        <ele>327</ele>
        <time>2012-05-29T12:02:17Z</time>
      </trkpt>
      <trkpt lat="44.36431" lon="4.09471">
        <ele>327</ele>
        <time>2012-05-29T12:02:27Z</time>
      </trkpt>
      <trkpt lat="44.36425" lon="4.09481">
        <ele>325.25</ele>
        <time>2012-05-29T12:02:39Z</time>
      </trkpt>
      <trkpt lat="44.36417" lon="4.09489">
        <ele>325</ele>
        <time>2012-05-29T12:02:47Z</time>
      </trkpt>
      <trkpt lat="44.36409" lon="4.09492">
        <ele>324</ele>
        <time>2012-05-29T12:02:55Z</time>
      </trkpt>
      <trkpt lat="44.36398" lon="4.09492">
        <ele>323.25</ele>
        <time>2012-05-29T12:03:02Z</time>
      </trkpt>
      <trkpt lat="44.36388" lon="4.09491">
        <ele>324.25</ele>
        <time>2012-05-29T12:03:09Z</time>
      </trkpt>
      <trkpt lat="44.36379" lon="4.09487">
        <ele>325.5</ele>
        <time>2012-05-29T12:03:15Z</time>
      </trkpt>
      <trkpt lat="44.36369" lon="4.09483">
        <ele>327</ele>
        <time>2012-05-29T12:03:24Z</time>
      </trkpt>
      <trkpt lat="44.3636" lon="4.09478">
        <ele>328</ele>
        <time>2012-05-29T12:03:30Z</time>
      </trkpt>
      <trkpt lat="44.36351" lon="4.09474">
        <ele>328.5</ele>
        <time>2012-05-29T12:03:37Z</time>
      </trkpt>
      <trkpt lat="44.36341" lon="4.09476">
        <ele>331.25</ele>
        <time>2012-05-29T12:03:51Z</time>
      </trkpt>
      <trkpt lat="44.36334" lon="4.09484">
        <ele>332.75</ele>
        <time>2012-05-29T12:04:03Z</time>
      </trkpt>
      <trkpt lat="44.36328" lon="4.09494">
        <ele>332.5</ele>
        <time>2012-05-29T12:04:16Z</time>
      </trkpt>
      <trkpt lat="44.3632" lon="4.09503">
        <ele>333</ele>
        <time>2012-05-29T12:04:28Z</time>
      </trkpt>
      <trkpt lat="44.36314" lon="4.09512">
        <ele>333</ele>
        <time>2012-05-29T12:04:39Z</time>
      </trkpt>
      <trkpt lat="44.36304" lon="4.09514">
        <ele>333</ele>
        <time>2012-05-29T12:04:46Z</time>
      </trkpt>
      <trkpt lat="44.36295" lon="4.09515">
        <ele>333</ele>
        <time>2012-05-29T12:04:54Z</time>
      </trkpt>
      <trkpt lat="44.36285" lon="4.09514">
        <ele>334</ele>
        <time>2012-05-29T12:05:01Z</time>
      </trkpt>
      <trkpt lat="44.36276" lon="4.09515">
        <ele>334</ele>
        <time>2012-05-29T12:05:09Z</time>
      </trkpt>
      <trkpt lat="44.36267" lon="4.09514">
        <ele>333.25</ele>
        <time>2012-05-29T12:05:17Z</time>
      </trkpt>
      <trkpt lat="44.36258" lon="4.09519">
        <ele>333</ele>
        <time>2012-05-29T12:05:29Z</time>
      </trkpt>
      <trkpt lat="44.36248" lon="4.09524">
        <ele>333</ele>
        <time>2012-05-29T12:05:41Z</time>
      </trkpt>
      <trkpt lat="44.36238" lon="4.09527">
        <ele>334.5</ele>
        <time>2012-05-29T12:05:51Z</time>
      </trkpt>
      <trkpt lat="44.36228" lon="4.09526">
        <ele>335.25</ele>
        <time>2012-05-29T12:05:57Z</time>
      </trkpt>
      <trkpt lat="44.36219" lon="4.09521">
        <ele>335.75</ele>
        <time>2012-05-29T12:06:05Z</time>
      </trkpt>
      <trkpt lat="44.36211" lon="4.09514">
        <ele>335</ele>
        <time>2012-05-29T12:06:13Z</time>
      </trkpt>
      <trkpt lat="44.36203" lon="4.09505">
        <ele>335</ele>
        <time>2012-05-29T12:06:24Z</time>
      </trkpt>
      <trkpt lat="44.36197" lon="4.09495">
        <ele>335</ele>
        <time>2012-05-29T12:06:33Z</time>
      </trkpt>
      <trkpt lat="44.36192" lon="4.09483">
        <ele>335</ele>
        <time>2012-05-29T12:06:42Z</time>
      </trkpt>
      <trkpt lat="44.36188" lon="4.09471">
        <ele>336</ele>
        <time>2012-05-29T12:06:50Z</time>
      </trkpt>
      <trkpt lat="44.36179" lon="4.09465">
        <ele>336</ele>
        <time>2012-05-29T12:07:02Z</time>
      </trkpt>
      <trkpt lat="44.36169" lon="4.09467">
        <ele>338</ele>
        <time>2012-05-29T12:07:12Z</time>
      </trkpt>
      <trkpt lat="44.3616" lon="4.09468">
        <ele>340.5</ele>
        <time>2012-05-29T12:07:23Z</time>
      </trkpt>
      <trkpt lat="44.3615" lon="4.09471">
        <ele>341</ele>
        <time>2012-05-29T12:07:35Z</time>
      </trkpt>
      <trkpt lat="44.36141" lon="4.0947">
        <ele>342.25</ele>
        <time>2012-05-29T12:07:44Z</time>
      </trkpt>
      <trkpt lat="44.36132" lon="4.0947">
        <ele>343.75</ele>
        <time>2012-05-29T12:07:53Z</time>
      </trkpt>
      <trkpt lat="44.36122" lon="4.0947">
        <ele>344</ele>
        <time>2012-05-29T12:08:02Z</time>
      </trkpt>
      <trkpt lat="44.36113" lon="4.0947">
        <ele>344</ele>
        <time>2012-05-29T12:08:09Z</time>
      </trkpt>
      <trkpt lat="44.36103" lon="4.09469">
        <ele>344</ele>
        <time>2012-05-29T12:08:18Z</time>
      </trkpt>
      <trkpt lat="44.36094" lon="4.09471">
        <ele>343.5</ele>
        <time>2012-05-29T12:08:28Z</time>
      </trkpt>
      <trkpt lat="44.36083" lon="4.0947">
        <ele>345</ele>
        <time>2012-05-29T12:08:40Z</time>
      </trkpt>
      <trkpt lat="44.36073" lon="4.09468">
        <ele>345.25</ele>
        <time>2012-05-29T12:08:46Z</time>
      </trkpt>
      <trkpt lat="44.36063" lon="4.09471">
        <ele>346</ele>
        <time>2012-05-29T12:08:52Z</time>
      </trkpt>
      <trkpt lat="44.36055" lon="4.09478">
        <ele>346.75</ele>
        <time>2012-05-29T12:09:00Z</time>
      </trkpt>
      <trkpt lat="44.36049" lon="4.09489">
        <ele>346</ele>
        <time>2012-05-29T12:09:05Z</time>
      </trkpt>
      <trkpt lat="44.36041" lon="4.09495">
        <ele>346</ele>
        <time>2012-05-29T12:09:11Z</time>
      </trkpt>
      <trkpt lat="44.36032" lon="4.09495">
        <ele>348</ele>
        <time>2012-05-29T12:09:21Z</time>
      </trkpt>
      <trkpt lat="44.36028" lon="4.09483">
        <ele>347.75</ele>
        <time>2012-05-29T12:09:30Z</time>
      </trkpt>
      <trkpt lat="44.3603" lon="4.09471">
        <ele>349</ele>
        <time>2012-05-29T12:09:50Z</time>
      </trkpt>
      <trkpt lat="44.36029" lon="4.09457">
        <ele>348</ele>
        <time>2012-05-29T12:10:01Z</time>
      </trkpt>
      <trkpt lat="44.36025" lon="4.09446">
        <ele>346.5</ele>
        <time>2012-05-29T12:10:08Z</time>
      </trkpt>
      <trkpt lat="44.36018" lon="4.09435">
        <ele>345</ele>
        <time>2012-05-29T12:10:15Z</time>
      </trkpt>
      <trkpt lat="44.3601" lon="4.09427">
        <ele>343.5</ele>
        <time>2012-05-29T12:10:21Z</time>
      </trkpt>
      <trkpt lat="44.36001" lon="4.09422">
        <ele>342</ele>
        <time>2012-05-29T12:10:30Z</time>
      </trkpt>
      <trkpt lat="44.35991" lon="4.0942">
        <ele>341</ele>
        <time>2012-05-29T12:10:38Z</time>
      </trkpt>
      <trkpt lat="44.35981" lon="4.09418">
        <ele>339.75</ele>
        <time>2012-05-29T12:10:48Z</time>
      </trkpt>
      <trkpt lat="44.35971" lon="4.09415">
        <ele>338.5</ele>
        <time>2012-05-29T12:10:57Z</time>
      </trkpt>
      <trkpt lat="44.35962" lon="4.09411">
        <ele>338</ele>
        <time>2012-05-29T12:11:06Z</time>
      </trkpt>
      <trkpt lat="44.35953" lon="4.09412">
        <ele>336.75</ele>
        <time>2012-05-29T12:11:15Z</time>
      </trkpt>
      <trkpt lat="44.35944" lon="4.09417">
        <ele>335.75</ele>
        <time>2012-05-29T12:11:25Z</time>
      </trkpt>
      <trkpt lat="44.35935" lon="4.09416">
        <ele>334.25</ele>
        <time>2012-05-29T12:11:34Z</time>
      </trkpt>
      <trkpt lat="44.35927" lon="4.09409">
        <ele>332.25</ele>
        <time>2012-05-29T12:11:43Z</time>
      </trkpt>
      <trkpt lat="44.35919" lon="4.09403">
        <ele>331.5</ele>
        <time>2012-05-29T12:11:51Z</time>
      </trkpt>
      <trkpt lat="44.3591" lon="4.09398">
        <ele>330</ele>
        <time>2012-05-29T12:12:00Z</time>
      </trkpt>
      <trkpt lat="44.35901" lon="4.09401">
        <ele>330.25</ele>
        <time>2012-05-29T12:12:36Z</time>
      </trkpt>
      <trkpt lat="44.35892" lon="4.09404">
        <ele>330.5</ele>
        <time>2012-05-29T12:12:37Z</time>
      </trkpt>
      <trkpt lat="44.35883" lon="4.09407">
        <ele>330.75</ele>
        <time>2012-05-29T12:12:38Z</time>
      </trkpt>
      <trkpt lat="44.35874" lon="4.09411">
        <ele>331</ele>
        <time>2012-05-29T12:12:39Z</time>
      </trkpt>
      <trkpt lat="44.35866" lon="4.0942">
        <ele>329.75</ele>
        <time>2012-05-29T12:12:49Z</time>
      </trkpt>
      <trkpt lat="44.35863" lon="4.09432">
        <ele>329</ele>
        <time>2012-05-29T12:12:59Z</time>
      </trkpt>
      <trkpt lat="44.35861" lon="4.09445">
        <ele>328</ele>
        <time>2012-05-29T12:13:11Z</time>
      </trkpt>
      <trkpt lat="44.35863" lon="4.09458">
        <ele>326.25</ele>
        <time>2012-05-29T12:13:21Z</time>
      </trkpt>
      <trkpt lat="44.35864" lon="4.09471">
        <ele>326.75</ele>
        <time>2012-05-29T12:13:33Z</time>
      </trkpt>
      <trkpt lat="44.35858" lon="4.09461">
        <ele>328.25</ele>
        <time>2012-05-29T12:13:52Z</time>
      </trkpt>
      <trkpt lat="44.3585" lon="4.09452">
        <ele>326.75</ele>
        <time>2012-05-29T12:13:59Z</time>
      </trkpt>
      <trkpt lat="44.35842" lon="4.09446">
        <ele>325.5</ele>
        <time>2012-05-29T12:14:06Z</time>
      </trkpt>
      <trkpt lat="44.35835" lon="4.09437">
        <ele>323.75</ele>
        <time>2012-05-29T12:14:14Z</time>
      </trkpt>
      <trkpt lat="44.35827" lon="4.0943">
        <ele>322</ele>
        <time>2012-05-29T12:14:24Z</time>
      </trkpt>
      <trkpt lat="44.35817" lon="4.09427">
        <ele>320</ele>
        <time>2012-05-29T12:14:32Z</time>
      </trkpt>
      <trkpt lat="44.35808" lon="4.09423">
        <ele>319.25</ele>
        <time>2012-05-29T12:14:38Z</time>
      </trkpt>
      <trkpt lat="44.35799" lon="4.09417">
        <ele>318</ele>
        <time>2012-05-29T12:14:48Z</time>
      </trkpt>
      <trkpt lat="44.3579" lon="4.09416">
        <ele>318</ele>
        <time>2012-05-29T12:14:57Z</time>
      </trkpt>
      <trkpt lat="44.3578" lon="4.09418">
        <ele>319</ele>
        <time>2012-05-29T12:15:06Z</time>
      </trkpt>
      <trkpt lat="44.3577" lon="4.09417">
        <ele>318</ele>
        <time>2012-05-29T12:15:14Z</time>
      </trkpt>
      <trkpt lat="44.35762" lon="4.0942">
        <ele>317.75</ele>
        <time>2012-05-29T12:15:23Z</time>
      </trkpt>
      <trkpt lat="44.35753" lon="4.09422">
        <ele>317</ele>
        <time>2012-05-29T12:15:33Z</time>
      </trkpt>
      <trkpt lat="44.35745" lon="4.0943">
        <ele>317</ele>
        <time>2012-05-29T12:15:42Z</time>
      </trkpt>
      <trkpt lat="44.35735" lon="4.09434">
        <ele>316</ele>
        <time>2012-05-29T12:15:53Z</time>
      </trkpt>
      <trkpt lat="44.35726" lon="4.09438">
        <ele>316</ele>
        <time>2012-05-29T12:16:01Z</time>
      </trkpt>
      <trkpt lat="44.35718" lon="4.09447">
        <ele>317.75</ele>
        <time>2012-05-29T12:16:28Z</time>
      </trkpt>
      <trkpt lat="44.35708" lon="4.09448">
        <ele>316.25</ele>
        <time>2012-05-29T12:16:38Z</time>
      </trkpt>
      <trkpt lat="44.35699" lon="4.0945">
        <ele>318</ele>
        <time>2012-05-29T12:16:45Z</time>
      </trkpt>
      <trkpt lat="44.3569" lon="4.09452">
        <ele>319.75</ele>
        <time>2012-05-29T12:16:53Z</time>
      </trkpt>
      <trkpt lat="44.35681" lon="4.09457">
        <ele>320</ele>
        <time>2012-05-29T12:17:02Z</time>
      </trkpt>
      <trkpt lat="44.35671" lon="4.0946">
        <ele>320</ele>
        <time>2012-05-29T12:17:13Z</time>
      </trkpt>
      <trkpt lat="44.35662" lon="4.09461">
        <ele>319.5</ele>
        <time>2012-05-29T12:17:26Z</time>
      </trkpt>
      <trkpt lat="44.35653" lon="4.09465">
        <ele>321</ele>
        <time>2012-05-29T12:17:45Z</time>
      </trkpt>
      <trkpt lat="44.35644" lon="4.09465">
        <ele>321.25</ele>
        <time>2012-05-29T12:17:52Z</time>
      </trkpt>
      <trkpt lat="44.35635" lon="4.0946">
        <ele>322</ele>
        <time>2012-05-29T12:18:05Z</time>
      </trkpt>
      <trkpt lat="44.35631" lon="4.09448">
        <ele>323.75</ele>
        <time>2012-05-29T12:18:26Z</time>
      </trkpt>
      <trkpt lat="44.35624" lon="4.09438">
        <ele>325</ele>
        <time>2012-05-29T12:18:36Z</time>
      </trkpt>
      <trkpt lat="44.35617" lon="4.09428">
        <ele>322.5</ele>
        <time>2012-05-29T12:18:45Z</time>
      </trkpt>
      <trkpt lat="44.3561" lon="4.09417">
        <ele>322</ele>
        <time>2012-05-29T12:18:52Z</time>
      </trkpt>
      <trkpt lat="44.35603" lon="4.09408">
        <ele>323</ele>
        <time>2012-05-29T12:19:00Z</time>
      </trkpt>
      <trkpt lat="44.35595" lon="4.09402">
        <ele>317</ele>
        <time>2012-05-29T12:19:32Z</time>
      </trkpt>
      <trkpt lat="44.35586" lon="4.09398">
        <ele>319</ele>
        <time>2012-05-29T12:19:39Z</time>
      </trkpt>
      <trkpt lat="44.35583" lon="4.09385">
        <ele>322.5</ele>
        <time>2012-05-29T12:20:06Z</time>
      </trkpt>
      <trkpt lat="44.35588" lon="4.09373">
        <ele>323.25</ele>
        <time>2012-05-29T12:20:14Z</time>
      </trkpt>
      <trkpt lat="44.35588" lon="4.09359">
        <ele>327.75</ele>
        <time>2012-05-29T12:20:30Z</time>
      </trkpt>
      <trkpt lat="44.35578" lon="4.09358">
        <ele>330.25</ele>
        <time>2012-05-29T12:20:47Z</time>
      </trkpt>
      <trkpt lat="44.35569" lon="4.09361">
        <ele>330</ele>
        <time>2012-05-29T12:20:54Z</time>
      </trkpt>
      <trkpt lat="44.3556" lon="4.09362">
        <ele>330</ele>
        <time>2012-05-29T12:21:01Z</time>
      </trkpt>
      <trkpt lat="44.3555" lon="4.09366">
        <ele>330.25</ele>
        <time>2012-05-29T12:21:08Z</time>
      </trkpt>
      <trkpt lat="44.35541" lon="4.09366">
        <ele>330</ele>
        <time>2012-05-29T12:21:12Z</time>
      </trkpt>
      <trkpt lat="44.35532" lon="4.09371">
        <ele>329.25</ele>
        <time>2012-05-29T12:21:19Z</time>
      </trkpt>
      <trkpt lat="44.35522" lon="4.09377">
        <ele>328</ele>
        <time>2012-05-29T12:21:30Z</time>
      </trkpt>
      <trkpt lat="44.35513" lon="4.09382">
        <ele>328</ele>
        <time>2012-05-29T12:21:38Z</time>
      </trkpt>
      <trkpt lat="44.35505" lon="4.09387">
        <ele>328</ele>
        <time>2012-05-29T12:21:46Z</time>
      </trkpt>
      <trkpt lat="44.35496" lon="4.0939">
        <ele>329</ele>
        <time>2012-05-29T12:21:56Z</time>
      </trkpt>
      <trkpt lat="44.35486" lon="4.09393">
        <ele>328</ele>
        <time>2012-05-29T12:22:01Z</time>
      </trkpt>
      <trkpt lat="44.35478" lon="4.094">
        <ele>327</ele>
        <time>2012-05-29T12:22:08Z</time>
      </trkpt>
      <trkpt lat="44.3547" lon="4.09406">
        <ele>327</ele>
        <time>2012-05-29T12:22:15Z</time>
      </trkpt>
      <trkpt lat="44.35462" lon="4.09415">
        <ele>327.25</ele>
        <time>2012-05-29T12:22:21Z</time>
      </trkpt>
      <trkpt lat="44.35453" lon="4.09414">
        <ele>328.5</ele>
        <time>2012-05-29T12:22:41Z</time>
      </trkpt>
      <trkpt lat="44.35446" lon="4.09425">
        <ele>329.5</ele>
        <time>2012-05-29T12:23:36Z</time>
      </trkpt>
      <trkpt lat="44.35445" lon="4.09441">
        <ele>328.5</ele>
        <time>2012-05-29T12:23:38Z</time>
      </trkpt>
      <trkpt lat="44.35441" lon="4.09454">
        <ele>327</ele>
        <time>2012-05-29T12:23:46Z</time>
      </trkpt>
      <trkpt lat="44.35436" lon="4.09465">
        <ele>327.25</ele>
        <time>2012-05-29T12:23:53Z</time>
      </trkpt>
      <trkpt lat="44.3543" lon="4.09475">
        <ele>325</ele>
        <time>2012-05-29T12:24:01Z</time>
      </trkpt>
      <trkpt lat="44.35424" lon="4.09486">
        <ele>324</ele>
        <time>2012-05-29T12:24:09Z</time>
      </trkpt>
      <trkpt lat="44.35422" lon="4.09498">
        <ele>324</ele>
        <time>2012-05-29T12:24:18Z</time>
      </trkpt>
      <trkpt lat="44.3542" lon="4.0951">
        <ele>322.75</ele>
        <time>2012-05-29T12:24:28Z</time>
      </trkpt>
      <trkpt lat="44.35417" lon="4.09523">
        <ele>320.5</ele>
        <time>2012-05-29T12:24:37Z</time>
      </trkpt>
      <trkpt lat="44.35414" lon="4.09535">
        <ele>317.25</ele>
        <time>2012-05-29T12:24:49Z</time>
      </trkpt>
      <trkpt lat="44.35409" lon="4.09546">
        <ele>316</ele>
        <time>2012-05-29T12:24:57Z</time>
      </trkpt>
      <trkpt lat="44.35401" lon="4.09555">
        <ele>315.5</ele>
        <time>2012-05-29T12:25:05Z</time>
      </trkpt>
      <trkpt lat="44.35397" lon="4.09567">
        <ele>312.5</ele>
        <time>2012-05-29T12:25:15Z</time>
      </trkpt>
      <trkpt lat="44.35396" lon="4.09581">
        <ele>310.25</ele>
        <time>2012-05-29T12:25:23Z</time>
      </trkpt>
      <trkpt lat="44.35393" lon="4.09595">
        <ele>310.75</ele>
        <time>2012-05-29T12:25:30Z</time>
      </trkpt>
      <trkpt lat="44.35392" lon="4.0961">
        <ele>310</ele>
        <time>2012-05-29T12:25:39Z</time>
      </trkpt>
      <trkpt lat="44.35384" lon="4.09613">
        <ele>309</ele>
        <time>2012-05-29T12:25:56Z</time>
      </trkpt>
      <trkpt lat="44.35392" lon="4.09617">
        <ele>302.25</ele>
        <time>2012-05-29T12:26:29Z</time>
      </trkpt>
      <trkpt lat="44.35393" lon="4.09631">
        <ele>300.25</ele>
        <time>2012-05-29T12:27:46Z</time>
      </trkpt>
      <trkpt lat="44.3539" lon="4.09643">
        <ele>299.75</ele>
        <time>2012-05-29T12:28:50Z</time>
      </trkpt>
      <trkpt lat="44.35383" lon="4.09651">
        <ele>298</ele>
        <time>2012-05-29T12:29:29Z</time>
      </trkpt>
      <trkpt lat="44.35375" lon="4.09659">
        <ele>297.75</ele>
        <time>2012-05-29T12:29:39Z</time>
      </trkpt>
      <trkpt lat="44.35369" lon="4.09669">
        <ele>293</ele>
        <time>2012-05-29T12:29:52Z</time>
      </trkpt>
      <trkpt lat="44.35363" lon="4.09679">
        <ele>294</ele>
        <time>2012-05-29T12:30:12Z</time>
      </trkpt>
      <trkpt lat="44.35356" lon="4.09688">
        <ele>294.5</ele>
        <time>2012-05-29T12:30:21Z</time>
      </trkpt>
      <trkpt lat="44.35348" lon="4.09695">
        <ele>295</ele>
        <time>2012-05-29T12:30:30Z</time>
      </trkpt>
      <trkpt lat="44.35337" lon="4.09697">
        <ele>296</ele>
        <time>2012-05-29T12:30:37Z</time>
      </trkpt>
      <trkpt lat="44.35328" lon="4.09701">
        <ele>296.5</ele>
        <time>2012-05-29T12:30:45Z</time>
      </trkpt>
      <trkpt lat="44.35319" lon="4.09701">
        <ele>297</ele>
        <time>2012-05-29T12:30:53Z</time>
      </trkpt>
      <trkpt lat="44.3531" lon="4.09703">
        <ele>298</ele>
        <time>2012-05-29T12:31:00Z</time>
      </trkpt>
      <trkpt lat="44.35301" lon="4.09707">
        <ele>298</ele>
        <time>2012-05-29T12:31:09Z</time>
      </trkpt>
      <trkpt lat="44.35291" lon="4.09709">
        <ele>298</ele>
        <time>2012-05-29T12:31:17Z</time>
      </trkpt>
      <trkpt lat="44.35282" lon="4.0971">
        <ele>296.75</ele>
        <time>2012-05-29T12:31:26Z</time>
      </trkpt>
      <trkpt lat="44.35272" lon="4.0971">
        <ele>296</ele>
        <time>2012-05-29T12:31:35Z</time>
      </trkpt>
      <trkpt lat="44.35266" lon="4.09699">
        <ele>295.25</ele>
        <time>2012-05-29T12:31:45Z</time>
      </trkpt>
      <trkpt lat="44.35261" lon="4.09688">
        <ele>294.75</ele>
        <time>2012-05-29T12:31:52Z</time>
      </trkpt>
      <trkpt lat="44.35254" lon="4.0968">
        <ele>295</ele>
        <time>2012-05-29T12:32:01Z</time>
      </trkpt>
      <trkpt lat="44.35246" lon="4.09676">
        <ele>295</ele>
        <time>2012-05-29T12:32:08Z</time>
      </trkpt>
      <trkpt lat="44.35236" lon="4.09676">
        <ele>293.5</ele>
        <time>2012-05-29T12:32:17Z</time>
      </trkpt>
      <trkpt lat="44.35228" lon="4.09681">
        <ele>293.25</ele>
        <time>2012-05-29T12:32:27Z</time>
      </trkpt>
      <trkpt lat="44.35219" lon="4.09686">
        <ele>291</ele>
        <time>2012-05-29T12:33:00Z</time>
      </trkpt>
      <trkpt lat="44.35211" lon="4.09695">
        <ele>294.25</ele>
        <time>2012-05-29T12:33:14Z</time>
      </trkpt>
      <trkpt lat="44.35203" lon="4.09701">
        <ele>295</ele>
        <time>2012-05-29T12:33:22Z</time>
      </trkpt>
      <trkpt lat="44.35199" lon="4.09713">
        <ele>294.5</ele>
        <time>2012-05-29T12:33:30Z</time>
      </trkpt>
      <trkpt lat="44.35199" lon="4.09727">
        <ele>293</ele>
        <time>2012-05-29T12:33:41Z</time>
      </trkpt>
      <trkpt lat="44.35198" lon="4.09741">
        <ele>293</ele>
        <time>2012-05-29T12:33:50Z</time>
      </trkpt>
      <trkpt lat="44.35191" lon="4.09751">
        <ele>295</ele>
        <time>2012-05-29T12:33:59Z</time>
      </trkpt>
      <trkpt lat="44.35182" lon="4.09757">
        <ele>296.25</ele>
        <time>2012-05-29T12:34:36Z</time>
      </trkpt>
      <trkpt lat="44.35166" lon="4.09765">
        <ele>298.75</ele>
        <time>2012-05-29T12:34:38Z</time>
      </trkpt>
      <trkpt lat="44.35157" lon="4.0976">
        <ele>300</ele>
        <time>2012-05-29T12:34:43Z</time>
      </trkpt>
      <trkpt lat="44.35158" lon="4.09745">
        <ele>299.75</ele>
        <time>2012-05-29T12:34:50Z</time>
      </trkpt>
      <trkpt lat="44.35154" lon="4.09733">
        <ele>301</ele>
        <time>2012-05-29T12:34:58Z</time>
      </trkpt>
      <trkpt lat="44.3515" lon="4.0972">
        <ele>303</ele>
        <time>2012-05-29T12:35:06Z</time>
      </trkpt>
      <trkpt lat="44.35151" lon="4.09707">
        <ele>304</ele>
        <time>2012-05-29T12:35:14Z</time>
      </trkpt>
      <trkpt lat="44.35151" lon="4.09694">
        <ele>306.25</ele>
        <time>2012-05-29T12:35:22Z</time>
      </trkpt>
      <trkpt lat="44.35151" lon="4.09679">
        <ele>308</ele>
        <time>2012-05-29T12:35:29Z</time>
      </trkpt>
      <trkpt lat="44.35147" lon="4.09667">
        <ele>308.25</ele>
        <time>2012-05-29T12:35:39Z</time>
      </trkpt>
      <trkpt lat="44.35144" lon="4.09655">
        <ele>309.75</ele>
        <time>2012-05-29T12:35:49Z</time>
      </trkpt>
      <trkpt lat="44.3514" lon="4.09642">
        <ele>310</ele>
        <time>2012-05-29T12:35:58Z</time>
      </trkpt>
      <trkpt lat="44.35136" lon="4.0963">
        <ele>309</ele>
        <time>2012-05-29T12:36:07Z</time>
      </trkpt>
      <trkpt lat="44.35131" lon="4.09618">
        <ele>309.25</ele>
        <time>2012-05-29T12:36:13Z</time>
      </trkpt>
      <trkpt lat="44.35129" lon="4.09604">
        <ele>308.75</ele>
        <time>2012-05-29T12:36:20Z</time>
      </trkpt>
      <trkpt lat="44.35125" lon="4.09591">
        <ele>307</ele>
        <time>2012-05-29T12:36:29Z</time>
      </trkpt>
      <trkpt lat="44.35124" lon="4.09577">
        <ele>305.5</ele>
        <time>2012-05-29T12:36:38Z</time>
      </trkpt>
      <trkpt lat="44.35123" lon="4.09564">
        <ele>303.75</ele>
        <time>2012-05-29T12:36:47Z</time>
      </trkpt>
      <trkpt lat="44.35119" lon="4.09553">
        <ele>301.75</ele>
        <time>2012-05-29T12:36:56Z</time>
      </trkpt>
      <trkpt lat="44.3511" lon="4.09559">
        <ele>302.25</ele>
        <time>2012-05-29T12:37:41Z</time>
      </trkpt>
      <trkpt lat="44.35111" lon="4.09546">
        <ele>305.25</ele>
        <time>2012-05-29T12:38:19Z</time>
      </trkpt>
      <trkpt lat="44.35113" lon="4.09533">
        <ele>305.5</ele>
        <time>2012-05-29T12:38:31Z</time>
      </trkpt>
      <trkpt lat="44.35114" lon="4.0952">
        <ele>303.75</ele>
        <time>2012-05-29T12:38:55Z</time>
      </trkpt>
      <trkpt lat="44.35114" lon="4.09505">
        <ele>304</ele>
        <time>2012-05-29T12:39:03Z</time>
      </trkpt>
      <trkpt lat="44.35112" lon="4.09492">
        <ele>303.5</ele>
        <time>2012-05-29T12:39:10Z</time>
      </trkpt>
      <trkpt lat="44.35112" lon="4.09478">
        <ele>303.25</ele>
        <time>2012-05-29T12:39:18Z</time>
      </trkpt>
      <trkpt lat="44.35111" lon="4.09464">
        <ele>302</ele>
        <time>2012-05-29T12:39:28Z</time>
      </trkpt>
      <trkpt lat="44.35105" lon="4.09454">
        <ele>304.25</ele>
        <time>2012-05-29T12:39:43Z</time>
      </trkpt>
      <trkpt lat="44.35108" lon="4.09441">
        <ele>302</ele>
        <time>2012-05-29T12:39:54Z</time>
      </trkpt>
      <trkpt lat="44.35109" lon="4.09428">
        <ele>301</ele>
        <time>2012-05-29T12:40:03Z</time>
      </trkpt>
      <trkpt lat="44.35114" lon="4.09418">
        <ele>302</ele>
        <time>2012-05-29T12:40:22Z</time>
      </trkpt>
      <trkpt lat="44.3512" lon="4.09407">
        <ele>302</ele>
        <time>2012-05-29T12:40:37Z</time>
      </trkpt>
      <trkpt lat="44.35124" lon="4.09396">
        <ele>300.75</ele>
        <time>2012-05-29T12:40:48Z</time>
      </trkpt>
      <trkpt lat="44.35116" lon="4.09387">
        <ele>301.25</ele>
        <time>2012-05-29T12:41:00Z</time>
      </trkpt>
      <trkpt lat="44.35109" lon="4.09379">
        <ele>304</ele>
        <time>2012-05-29T12:41:10Z</time>
      </trkpt>
      <trkpt lat="44.35111" lon="4.09367">
        <ele>301.75</ele>
        <time>2012-05-29T12:41:43Z</time>
      </trkpt>
      <trkpt lat="44.35106" lon="4.09355">
        <ele>301</ele>
        <time>2012-05-29T12:41:55Z</time>
      </trkpt>
      <trkpt lat="44.35102" lon="4.09342">
        <ele>302.75</ele>
        <time>2012-05-29T12:42:07Z</time>
      </trkpt>
      <trkpt lat="44.35097" lon="4.09331">
        <ele>304.5</ele>
        <time>2012-05-29T12:42:16Z</time>
      </trkpt>
      <trkpt lat="44.35094" lon="4.09319">
        <ele>306</ele>
        <time>2012-05-29T12:42:28Z</time>
      </trkpt>
      <trkpt lat="44.3509" lon="4.09307">
        <ele>306.5</ele>
        <time>2012-05-29T12:42:36Z</time>
      </trkpt>
      <trkpt lat="44.35086" lon="4.09295">
        <ele>307</ele>
        <time>2012-05-29T12:42:48Z</time>
      </trkpt>
      <trkpt lat="44.35084" lon="4.09282">
        <ele>309</ele>
        <time>2012-05-29T12:42:59Z</time>
      </trkpt>
      <trkpt lat="44.35078" lon="4.09272">
        <ele>308</ele>
        <time>2012-05-29T12:43:07Z</time>
      </trkpt>
      <trkpt lat="44.35072" lon="4.09262">
        <ele>309</ele>
        <time>2012-05-29T12:43:15Z</time>
      </trkpt>
      <trkpt lat="44.35068" lon="4.09249">
        <ele>311</ele>
        <time>2012-05-29T12:43:24Z</time>
      </trkpt>
      <trkpt lat="44.35063" lon="4.09236">
        <ele>310</ele>
        <time>2012-05-29T12:43:33Z</time>
      </trkpt>
      <trkpt lat="44.35057" lon="4.09225">
        <ele>307.5</ele>
        <time>2012-05-29T12:43:41Z</time>
      </trkpt>
      <trkpt lat="44.35059" lon="4.09212">
        <ele>308.25</ele>
        <time>2012-05-29T12:43:52Z</time>
      </trkpt>
      <trkpt lat="44.35056" lon="4.09199">
        <ele>309</ele>
        <time>2012-05-29T12:44:03Z</time>
      </trkpt>
      <trkpt lat="44.3505" lon="4.0919">
        <ele>308</ele>
        <time>2012-05-29T12:44:09Z</time>
      </trkpt>
      <trkpt lat="44.35046" lon="4.09177">
        <ele>308</ele>
        <time>2012-05-29T12:44:17Z</time>
      </trkpt>
      <trkpt lat="44.35042" lon="4.09165">
        <ele>306.75</ele>
        <time>2012-05-29T12:44:29Z</time>
      </trkpt>
      <trkpt lat="44.35037" lon="4.09155">
        <ele>304.5</ele>
        <time>2012-05-29T12:44:38Z</time>
      </trkpt>
      <trkpt lat="44.35034" lon="4.09143">
        <ele>302.25</ele>
        <time>2012-05-29T12:44:45Z</time>
      </trkpt>
      <trkpt lat="44.3503" lon="4.09131">
        <ele>301.5</ele>
        <time>2012-05-29T12:44:51Z</time>
      </trkpt>
      <trkpt lat="44.35026" lon="4.09119">
        <ele>302.75</ele>
        <time>2012-05-29T12:45:02Z</time>
      </trkpt>
      <trkpt lat="44.35021" lon="4.09107">
        <ele>304</ele>
        <time>2012-05-29T12:45:11Z</time>
      </trkpt>
      <trkpt lat="44.35016" lon="4.09096">
        <ele>304</ele>
        <time>2012-05-29T12:45:19Z</time>
      </trkpt>
      <trkpt lat="44.35014" lon="4.09083">
        <ele>305</ele>
        <time>2012-05-29T12:45:28Z</time>
      </trkpt>
      <trkpt lat="44.3501" lon="4.09071">
        <ele>307</ele>
        <time>2012-05-29T12:45:39Z</time>
      </trkpt>
      <trkpt lat="44.35003" lon="4.09063">
        <ele>307.25</ele>
        <time>2012-05-29T12:45:46Z</time>
      </trkpt>
      <trkpt lat="44.34999" lon="4.09052">
        <ele>308</ele>
        <time>2012-05-29T12:45:53Z</time>
      </trkpt>
      <trkpt lat="44.34997" lon="4.09029">
        <ele>308.25</ele>
        <time>2012-05-29T12:46:36Z</time>
      </trkpt>
      <trkpt lat="44.34995" lon="4.09015">
        <ele>308.5</ele>
        <time>2012-05-29T12:46:37Z</time>
      </trkpt>
      <trkpt lat="44.34994" lon="4.09001">
        <ele>308.75</ele>
        <time>2012-05-29T12:46:38Z</time>
      </trkpt>
      <trkpt lat="44.34992" lon="4.08988">
        <ele>309</ele>
        <time>2012-05-29T12:46:39Z</time>
      </trkpt>
      <trkpt lat="44.34988" lon="4.08976">
        <ele>310.75</ele>
        <time>2012-05-29T12:46:49Z</time>
      </trkpt>
      <trkpt lat="44.34986" lon="4.08963">
        <ele>311</ele>
        <time>2012-05-29T12:46:57Z</time>
      </trkpt>
      <trkpt lat="44.34983" lon="4.0895">
        <ele>311.5</ele>
        <time>2012-05-29T12:47:07Z</time>
      </trkpt>
      <trkpt lat="44.34979" lon="4.08938">
        <ele>311</ele>
        <time>2012-05-29T12:47:18Z</time>
      </trkpt>
      <trkpt lat="44.34978" lon="4.08924">
        <ele>308.5</ele>
        <time>2012-05-29T12:47:27Z</time>
      </trkpt>
      <trkpt lat="44.34982" lon="4.08912">
        <ele>309</ele>
        <time>2012-05-29T12:47:36Z</time>
      </trkpt>
      <trkpt lat="44.34985" lon="4.089">
        <ele>309</ele>
        <time>2012-05-29T12:47:45Z</time>
      </trkpt>
      <trkpt lat="44.34984" lon="4.08887">
        <ele>309.25</ele>
        <time>2012-05-29T12:47:53Z</time>
      </trkpt>
      <trkpt lat="44.3498" lon="4.08875">
        <ele>308.25</ele>
        <time>2012-05-29T12:48:04Z</time>
      </trkpt>
      <trkpt lat="44.34974" lon="4.08865">
        <ele>308</ele>
        <time>2012-05-29T12:48:14Z</time>
      </trkpt>
      <trkpt lat="44.3497" lon="4.08854">
        <ele>308</ele>
        <time>2012-05-29T12:48:22Z</time>
      </trkpt>
      <trkpt lat="44.34968" lon="4.08841">
        <ele>309.75</ele>
        <time>2012-05-29T12:48:32Z</time>
      </trkpt>
      <trkpt lat="44.34967" lon="4.08827">
        <ele>310.25</ele>
        <time>2012-05-29T12:48:41Z</time>
      </trkpt>
      <trkpt lat="44.3497" lon="4.08813">
        <ele>310</ele>
        <time>2012-05-29T12:48:49Z</time>
      </trkpt>
      <trkpt lat="44.3497" lon="4.088">
        <ele>310.5</ele>
        <time>2012-05-29T12:48:57Z</time>
      </trkpt>
      <trkpt lat="44.34975" lon="4.08788">
        <ele>311.5</ele>
        <time>2012-05-29T12:49:05Z</time>
      </trkpt>
      <trkpt lat="44.34979" lon="4.08775">
        <ele>313.5</ele>
        <time>2012-05-29T12:49:13Z</time>
      </trkpt>
      <trkpt lat="44.34985" lon="4.08765">
        <ele>314.5</ele>
        <time>2012-05-29T12:49:22Z</time>
      </trkpt>
      <trkpt lat="44.34988" lon="4.08752">
        <ele>315.5</ele>
        <time>2012-05-29T12:49:34Z</time>
      </trkpt>
      <trkpt lat="44.34985" lon="4.08739">
        <ele>315</ele>
        <time>2012-05-29T12:49:43Z</time>
      </trkpt>
      <trkpt lat="44.34986" lon="4.08725">
        <ele>313.25</ele>
        <time>2012-05-29T12:49:54Z</time>
      </trkpt>
      <trkpt lat="44.34982" lon="4.08713">
        <ele>311</ele>
        <time>2012-05-29T12:50:07Z</time>
      </trkpt>
      <trkpt lat="44.34975" lon="4.08704">
        <ele>311.25</ele>
        <time>2012-05-29T12:50:15Z</time>
      </trkpt>
      <trkpt lat="44.34968" lon="4.08695">
        <ele>310.75</ele>
        <time>2012-05-29T12:50:20Z</time>
      </trkpt>
      <trkpt lat="44.34962" lon="4.08684">
        <ele>311</ele>
        <time>2012-05-29T12:50:30Z</time>
      </trkpt>
      <trkpt lat="44.34956" lon="4.08674">
        <ele>312.75</ele>
        <time>2012-05-29T12:50:40Z</time>
      </trkpt>
      <trkpt lat="44.34952" lon="4.08661">
        <ele>313</ele>
        <time>2012-05-29T12:50:52Z</time>
      </trkpt>
      <trkpt lat="44.3495" lon="4.08648">
        <ele>312</ele>
        <time>2012-05-29T12:51:02Z</time>
      </trkpt>
      <trkpt lat="44.34952" lon="4.08635">
        <ele>313.25</ele>
        <time>2012-05-29T12:51:10Z</time>
      </trkpt>
      <trkpt lat="44.3495" lon="4.08623">
        <ele>315.25</ele>
        <time>2012-05-29T12:51:20Z</time>
      </trkpt>
      <trkpt lat="44.34948" lon="4.08609">
        <ele>315.75</ele>
        <time>2012-05-29T12:51:29Z</time>
      </trkpt>
      <trkpt lat="44.3495" lon="4.08596">
        <ele>316</ele>
        <time>2012-05-29T12:51:36Z</time>
      </trkpt>
      <trkpt lat="44.34956" lon="4.08584">
        <ele>317.25</ele>
        <time>2012-05-29T12:51:44Z</time>
      </trkpt>
      <trkpt lat="44.34961" lon="4.08574">
        <ele>319</ele>
        <time>2012-05-29T12:51:54Z</time>
      </trkpt>
      <trkpt lat="44.34965" lon="4.08562">
        <ele>319.75</ele>
        <time>2012-05-29T12:52:04Z</time>
      </trkpt>
      <trkpt lat="44.34966" lon="4.0855">
        <ele>320</ele>
        <time>2012-05-29T12:52:14Z</time>
      </trkpt>
      <trkpt lat="44.3497" lon="4.08537">
        <ele>320.75</ele>
        <time>2012-05-29T12:52:21Z</time>
      </trkpt>
      <trkpt lat="44.34975" lon="4.08526">
        <ele>321</ele>
        <time>2012-05-29T12:52:32Z</time>
      </trkpt>
      <trkpt lat="44.34978" lon="4.08513">
        <ele>321.5</ele>
        <time>2012-05-29T12:52:42Z</time>
      </trkpt>
      <trkpt lat="44.34977" lon="4.085">
        <ele>322.75</ele>
        <time>2012-05-29T12:52:49Z</time>
      </trkpt>
      <trkpt lat="44.34982" lon="4.08477">
        <ele>323.75</ele>
        <time>2012-05-29T12:53:43Z</time>
      </trkpt>
      <trkpt lat="44.34984" lon="4.08464">
        <ele>324.5</ele>
        <time>2012-05-29T12:53:45Z</time>
      </trkpt>
      <trkpt lat="44.34986" lon="4.08451">
        <ele>325.25</ele>
        <time>2012-05-29T12:53:46Z</time>
      </trkpt>
      <trkpt lat="44.34988" lon="4.08438">
        <ele>326</ele>
        <time>2012-05-29T12:53:47Z</time>
      </trkpt>
      <trkpt lat="44.34992" lon="4.08426">
        <ele>327.5</ele>
        <time>2012-05-29T12:53:55Z</time>
      </trkpt>
      <trkpt lat="44.34995" lon="4.08413">
        <ele>329</ele>
        <time>2012-05-29T12:54:03Z</time>
      </trkpt>
      <trkpt lat="44.35003" lon="4.08406">
        <ele>331.25</ele>
        <time>2012-05-29T12:54:16Z</time>
      </trkpt>
      <trkpt lat="44.35009" lon="4.08396">
        <ele>331</ele>
        <time>2012-05-29T12:54:23Z</time>
      </trkpt>
      <trkpt lat="44.35013" lon="4.08385">
        <ele>332</ele>
        <time>2012-05-29T12:54:34Z</time>
      </trkpt>
      <trkpt lat="44.3502" lon="4.08376">
        <ele>332</ele>
        <time>2012-05-29T12:54:42Z</time>
      </trkpt>
      <trkpt lat="44.35023" lon="4.08364">
        <ele>331</ele>
        <time>2012-05-29T12:54:52Z</time>
      </trkpt>
      <trkpt lat="44.35026" lon="4.08351">
        <ele>331.75</ele>
        <time>2012-05-29T12:55:05Z</time>
      </trkpt>
      <trkpt lat="44.35023" lon="4.08339">
        <ele>330.5</ele>
        <time>2012-05-29T12:55:19Z</time>
      </trkpt>
      <trkpt lat="44.35021" lon="4.08326">
        <ele>330</ele>
        <time>2012-05-29T12:55:29Z</time>
      </trkpt>
      <trkpt lat="44.35017" lon="4.08314">
        <ele>331</ele>
        <time>2012-05-29T12:55:41Z</time>
      </trkpt>
      <trkpt lat="44.35016" lon="4.08301">
        <ele>329</ele>
        <time>2012-05-29T12:55:49Z</time>
      </trkpt>
      <trkpt lat="44.35016" lon="4.08288">
        <ele>330.5</ele>
        <time>2012-05-29T12:55:57Z</time>
      </trkpt>
      <trkpt lat="44.35021" lon="4.08276">
        <ele>331</ele>
        <time>2012-05-29T12:56:07Z</time>
      </trkpt>
      <trkpt lat="44.35024" lon="4.08265">
        <ele>330.75</ele>
        <time>2012-05-29T12:56:19Z</time>
      </trkpt>
      <trkpt lat="44.35028" lon="4.08252">
        <ele>329</ele>
        <time>2012-05-29T12:56:33Z</time>
      </trkpt>
      <trkpt lat="44.35033" lon="4.08241">
        <ele>330.25</ele>
        <time>2012-05-29T12:56:45Z</time>
      </trkpt>
      <trkpt lat="44.35038" lon="4.0823">
        <ele>331</ele>
        <time>2012-05-29T12:56:56Z</time>
      </trkpt>
      <trkpt lat="44.35045" lon="4.08219">
        <ele>331.75</ele>
        <time>2012-05-29T12:57:05Z</time>
      </trkpt>
      <trkpt lat="44.35051" lon="4.0821">
        <ele>333</ele>
        <time>2012-05-29T12:57:15Z</time>
      </trkpt>
      <trkpt lat="44.35054" lon="4.08197">
        <ele>333.5</ele>
        <time>2012-05-29T12:57:23Z</time>
      </trkpt>
      <trkpt lat="44.3506" lon="4.08187">
        <ele>335.5</ele>
        <time>2012-05-29T12:57:36Z</time>
      </trkpt>
      <trkpt lat="44.35069" lon="4.08185">
        <ele>339.5</ele>
        <time>2012-05-29T12:58:04Z</time>
      </trkpt>
      <trkpt lat="44.35074" lon="4.08173">
        <ele>340.5</ele>
        <time>2012-05-29T12:58:14Z</time>
      </trkpt>
      <trkpt lat="44.3508" lon="4.08163">
        <ele>340.25</ele>
        <time>2012-05-29T12:58:24Z</time>
      </trkpt>
      <trkpt lat="44.35086" lon="4.08152">
        <ele>338</ele>
        <time>2012-05-29T12:58:32Z</time>
      </trkpt>
      <trkpt lat="44.35093" lon="4.08143">
        <ele>336.25</ele>
        <time>2012-05-29T12:58:42Z</time>
      </trkpt>
      <trkpt lat="44.35099" lon="4.08133">
        <ele>336</ele>
        <time>2012-05-29T12:58:52Z</time>
      </trkpt>
      <trkpt lat="44.35104" lon="4.08121">
        <ele>338.5</ele>
        <time>2012-05-29T12:59:01Z</time>
      </trkpt>
      <trkpt lat="44.3511" lon="4.0811">
        <ele>339.5</ele>
        <time>2012-05-29T12:59:13Z</time>
      </trkpt>
      <trkpt lat="44.35118" lon="4.08102">
        <ele>341</ele>
        <time>2012-05-29T12:59:24Z</time>
      </trkpt>
      <trkpt lat="44.35125" lon="4.08092">
        <ele>341.75</ele>
        <time>2012-05-29T12:59:35Z</time>
      </trkpt>
      <trkpt lat="44.35131" lon="4.08082">
        <ele>343</ele>
        <time>2012-05-29T12:59:41Z</time>
      </trkpt>
      <trkpt lat="44.35141" lon="4.08081">
        <ele>346.25</ele>
        <time>2012-05-29T12:59:53Z</time>
      </trkpt>
      <trkpt lat="44.3515" lon="4.08075">
        <ele>347.25</ele>
        <time>2012-05-29T13:00:04Z</time>
      </trkpt>
      <trkpt lat="44.35154" lon="4.08063">
        <ele>344.75</ele>
        <time>2012-05-29T13:00:22Z</time>
      </trkpt>
      <trkpt lat="44.35162" lon="4.08057">
        <ele>340</ele>
        <time>2012-05-29T13:01:24Z</time>
      </trkpt>
      <trkpt lat="44.35169" lon="4.08049">
        <ele>342</ele>
        <time>2012-05-29T13:01:45Z</time>
      </trkpt>
      <trkpt lat="44.35176" lon="4.0804">
        <ele>343.75</ele>
        <time>2012-05-29T13:01:58Z</time>
      </trkpt>
      <trkpt lat="44.35185" lon="4.08036">
        <ele>344.25</ele>
        <time>2012-05-29T13:02:06Z</time>
      </trkpt>
      <trkpt lat="44.35193" lon="4.08031">
        <ele>345.5</ele>
        <time>2012-05-29T13:02:17Z</time>
      </trkpt>
      <trkpt lat="44.35199" lon="4.0802">
        <ele>347</ele>
        <time>2012-05-29T13:02:31Z</time>
      </trkpt>
      <trkpt lat="44.35207" lon="4.08014">
        <ele>346.5</ele>
        <time>2012-05-29T13:02:39Z</time>
      </trkpt>
      <trkpt lat="44.35216" lon="4.08007">
        <ele>345</ele>
        <time>2012-05-29T13:02:45Z</time>
      </trkpt>
      <trkpt lat="44.35224" lon="4.07999">
        <ele>345.25</ele>
        <time>2012-05-29T13:02:58Z</time>
      </trkpt>
      <trkpt lat="44.35232" lon="4.07992">
        <ele>345</ele>
        <time>2012-05-29T13:03:07Z</time>
      </trkpt>
      <trkpt lat="44.35239" lon="4.07984">
        <ele>343</ele>
        <time>2012-05-29T13:03:14Z</time>
      </trkpt>
      <trkpt lat="44.35248" lon="4.07993">
        <ele>337</ele>
        <time>2012-05-29T13:03:40Z</time>
      </trkpt>
      <trkpt lat="44.35252" lon="4.08004">
        <ele>336</ele>
        <time>2012-05-29T13:03:48Z</time>
      </trkpt>
      <trkpt lat="44.35251" lon="4.08017">
        <ele>336.5</ele>
        <time>2012-05-29T13:03:59Z</time>
      </trkpt>
      <trkpt lat="44.35259" lon="4.08023">
        <ele>339.75</ele>
        <time>2012-05-29T13:04:38Z</time>
      </trkpt>
      <trkpt lat="44.35256" lon="4.0801">
        <ele>332</ele>
        <time>2012-05-29T13:04:48Z</time>
      </trkpt>
      <trkpt lat="44.35247" lon="4.08011">
        <ele>334.5</ele>
        <time>2012-05-29T13:05:15Z</time>
      </trkpt>
      <trkpt lat="44.35246" lon="4.08024">
        <ele>334.25</ele>
        <time>2012-05-29T13:08:44Z</time>
      </trkpt>
      <trkpt lat="44.35255" lon="4.08029">
        <ele>336.75</ele>
        <time>2012-05-29T13:10:14Z</time>
      </trkpt>
      <trkpt lat="44.35261" lon="4.0802">
        <ele>335</ele>
        <time>2012-05-29T13:11:07Z</time>
      </trkpt>
      <trkpt lat="44.35269" lon="4.08014">
        <ele>333.5</ele>
        <time>2012-05-29T13:11:21Z</time>
      </trkpt>
      <trkpt lat="44.35277" lon="4.08006">
        <ele>333</ele>
        <time>2012-05-29T13:11:30Z</time>
      </trkpt>
      <trkpt lat="44.35283" lon="4.07996">
        <ele>323</ele>
        <time>2012-05-29T13:12:28Z</time>
      </trkpt>
      <trkpt lat="44.35283" lon="4.07984">
        <ele>322.75</ele>
        <time>2012-05-29T13:12:44Z</time>
      </trkpt>
      <trkpt lat="44.35286" lon="4.07971">
        <ele>323</ele>
        <time>2012-05-29T13:13:03Z</time>
      </trkpt>
      <trkpt lat="44.35295" lon="4.07967">
        <ele>327</ele>
        <time>2012-05-29T13:13:16Z</time>
      </trkpt>
      <trkpt lat="44.35304" lon="4.07967">
        <ele>329.75</ele>
        <time>2012-05-29T13:13:33Z</time>
      </trkpt>
      <trkpt lat="44.35312" lon="4.07961">
        <ele>331</ele>
        <time>2012-05-29T13:13:52Z</time>
      </trkpt>
      <trkpt lat="44.35321" lon="4.07964">
        <ele>332.5</ele>
        <time>2012-05-29T13:14:36Z</time>
      </trkpt>
      <trkpt lat="44.35326" lon="4.07974">
        <ele>334.25</ele>
        <time>2012-05-29T13:14:47Z</time>
      </trkpt>
      <trkpt lat="44.35327" lon="4.07961">
        <ele>337.5</ele>
        <time>2012-05-29T13:15:07Z</time>
      </trkpt>
      <trkpt lat="44.35333" lon="4.07952">
        <ele>342</ele>
        <time>2012-05-29T13:15:36Z</time>
      </trkpt>
      <trkpt lat="44.35341" lon="4.07958">
        <ele>350</ele>
        <time>2012-05-29T13:16:29Z</time>
      </trkpt>
      <trkpt lat="44.35349" lon="4.07951">
        <ele>351.25</ele>
        <time>2012-05-29T13:16:47Z</time>
      </trkpt>
      <trkpt lat="44.35359" lon="4.07955">
        <ele>360</ele>
        <time>2012-05-29T13:18:49Z</time>
      </trkpt>
      <trkpt lat="44.35368" lon="4.07955">
        <ele>361</ele>
        <time>2012-05-29T13:19:00Z</time>
      </trkpt>
      <trkpt lat="44.35377" lon="4.07958">
        <ele>366</ele>
        <time>2012-05-29T13:20:12Z</time>
      </trkpt>
      <trkpt lat="44.35386" lon="4.07964">
        <ele>368.75</ele>
        <time>2012-05-29T13:20:57Z</time>
      </trkpt>
      <trkpt lat="44.35384" lon="4.07977">
        <ele>370</ele>
        <time>2012-05-29T13:21:17Z</time>
      </trkpt>
      <trkpt lat="44.35388" lon="4.07992">
        <ele>378.5</ele>
        <time>2012-05-29T13:22:45Z</time>
      </trkpt>
      <trkpt lat="44.35396" lon="4.07998">
        <ele>386</ele>
        <time>2012-05-29T13:23:32Z</time>
      </trkpt>
      <trkpt lat="44.35398" lon="4.0801">
        <ele>383.25</ele>
        <time>2012-05-29T13:24:39Z</time>
      </trkpt>
      <trkpt lat="44.35406" lon="4.08018">
        <ele>376.5</ele>
        <time>2012-05-29T13:27:10Z</time>
      </trkpt>
      <trkpt lat="44.35414" lon="4.08026">
        <ele>378</ele>
        <time>2012-05-29T13:27:20Z</time>
      </trkpt>
      <trkpt lat="44.35418" lon="4.08038">
        <ele>378.75</ele>
        <time>2012-05-29T13:27:30Z</time>
      </trkpt>
      <trkpt lat="44.35416" lon="4.08051">
        <ele>376</ele>
        <time>2012-05-29T13:27:41Z</time>
      </trkpt>
      <trkpt lat="44.35422" lon="4.0806">
        <ele>378</ele>
        <time>2012-05-29T13:27:52Z</time>
      </trkpt>
      <trkpt lat="44.35422" lon="4.08074">
        <ele>380</ele>
        <time>2012-05-29T13:28:03Z</time>
      </trkpt>
      <trkpt lat="44.35427" lon="4.08085">
        <ele>382</ele>
        <time>2012-05-29T13:28:13Z</time>
      </trkpt>
      <trkpt lat="44.35435" lon="4.08091">
        <ele>384</ele>
        <time>2012-05-29T13:28:24Z</time>
      </trkpt>
      <trkpt lat="44.35444" lon="4.08095">
        <ele>386.25</ele>
        <time>2012-05-29T13:28:43Z</time>
      </trkpt>
      <trkpt lat="44.35453" lon="4.08093">
        <ele>389.25</ele>
        <time>2012-05-29T13:28:56Z</time>
      </trkpt>
      <trkpt lat="44.35461" lon="4.08086">
        <ele>393</ele>
        <time>2012-05-29T13:29:09Z</time>
      </trkpt>
      <trkpt lat="44.3547" lon="4.08081">
        <ele>394</ele>
        <time>2012-05-29T13:29:21Z</time>
      </trkpt>
      <trkpt lat="44.35479" lon="4.08074">
        <ele>395.75</ele>
        <time>2012-05-29T13:29:30Z</time>
      </trkpt>
      <trkpt lat="44.35487" lon="4.08068">
        <ele>396.5</ele>
        <time>2012-05-29T13:29:40Z</time>
      </trkpt>
      <trkpt lat="44.35495" lon="4.0806">
        <ele>398.25</ele>
        <time>2012-05-29T13:29:52Z</time>
      </trkpt>
      <trkpt lat="44.35503" lon="4.08053">
        <ele>401</ele>
        <time>2012-05-29T13:30:09Z</time>
      </trkpt>
      <trkpt lat="44.35512" lon="4.08046">
        <ele>402.25</ele>
        <time>2012-05-29T13:30:20Z</time>
      </trkpt>
      <trkpt lat="44.35521" lon="4.08041">
        <ele>402</ele>
        <time>2012-05-29T13:30:30Z</time>
      </trkpt>
      <trkpt lat="44.35529" lon="4.08038">
        <ele>403</ele>
        <time>2012-05-29T13:30:39Z</time>
      </trkpt>
      <trkpt lat="44.35539" lon="4.08034">
        <ele>404</ele>
        <time>2012-05-29T13:30:49Z</time>
      </trkpt>
      <trkpt lat="44.35546" lon="4.08027">
        <ele>405</ele>
        <time>2012-05-29T13:31:02Z</time>
      </trkpt>
      <trkpt lat="44.35555" lon="4.0802">
        <ele>407</ele>
        <time>2012-05-29T13:31:15Z</time>
      </trkpt>
      <trkpt lat="44.35563" lon="4.08013">
        <ele>408.5</ele>
        <time>2012-05-29T13:31:26Z</time>
      </trkpt>
      <trkpt lat="44.35571" lon="4.08006">
        <ele>410.25</ele>
        <time>2012-05-29T13:31:34Z</time>
      </trkpt>
      <trkpt lat="44.35579" lon="4.07998">
        <ele>412.25</ele>
        <time>2012-05-29T13:31:43Z</time>
      </trkpt>
      <trkpt lat="44.35588" lon="4.07994">
        <ele>413.5</ele>
        <time>2012-05-29T13:31:51Z</time>
      </trkpt>
      <trkpt lat="44.35597" lon="4.07988">
        <ele>415</ele>
        <time>2012-05-29T13:31:58Z</time>
      </trkpt>
      <trkpt lat="44.35606" lon="4.07983">
        <ele>415.75</ele>
        <time>2012-05-29T13:32:05Z</time>
      </trkpt>
      <trkpt lat="44.35615" lon="4.07982">
        <ele>417.25</ele>
        <time>2012-05-29T13:32:15Z</time>
      </trkpt>
      <trkpt lat="44.35625" lon="4.07979">
        <ele>419</ele>
        <time>2012-05-29T13:32:27Z</time>
      </trkpt>
      <trkpt lat="44.35634" lon="4.07976">
        <ele>419.75</ele>
        <time>2012-05-29T13:32:39Z</time>
      </trkpt>
      <trkpt lat="44.35644" lon="4.07974">
        <ele>420.25</ele>
        <time>2012-05-29T13:32:47Z</time>
      </trkpt>
      <trkpt lat="44.35653" lon="4.0797">
        <ele>421</ele>
        <time>2012-05-29T13:32:56Z</time>
      </trkpt>
      <trkpt lat="44.35663" lon="4.07969">
        <ele>421</ele>
        <time>2012-05-29T13:33:05Z</time>
      </trkpt>
      <trkpt lat="44.35673" lon="4.0797">
        <ele>423</ele>
        <time>2012-05-29T13:33:14Z</time>
      </trkpt>
      <trkpt lat="44.35682" lon="4.07975">
        <ele>422.75</ele>
        <time>2012-05-29T13:33:23Z</time>
      </trkpt>
      <trkpt lat="44.35692" lon="4.07975">
        <ele>421.5</ele>
        <time>2012-05-29T13:33:32Z</time>
      </trkpt>
      <trkpt lat="44.35701" lon="4.07971">
        <ele>418</ele>
        <time>2012-05-29T13:33:43Z</time>
      </trkpt>
      <trkpt lat="44.3571" lon="4.07969">
        <ele>418.25</ele>
        <time>2012-05-29T13:33:57Z</time>
      </trkpt>
      <trkpt lat="44.35719" lon="4.07964">
        <ele>418</ele>
        <time>2012-05-29T13:34:08Z</time>
      </trkpt>
      <trkpt lat="44.35728" lon="4.0796">
        <ele>419</ele>
        <time>2012-05-29T13:34:18Z</time>
      </trkpt>
      <trkpt lat="44.35737" lon="4.07953">
        <ele>420</ele>
        <time>2012-05-29T13:34:29Z</time>
      </trkpt>
      <trkpt lat="44.35747" lon="4.0795">
        <ele>420.25</ele>
        <time>2012-05-29T13:34:38Z</time>
      </trkpt>
      <trkpt lat="44.35756" lon="4.07954">
        <ele>420</ele>
        <time>2012-05-29T13:34:45Z</time>
      </trkpt>
      <trkpt lat="44.35759" lon="4.07966">
        <ele>416.75</ele>
        <time>2012-05-29T13:34:53Z</time>
      </trkpt>
      <trkpt lat="44.35763" lon="4.07978">
        <ele>413.25</ele>
        <time>2012-05-29T13:35:04Z</time>
      </trkpt>
      <trkpt lat="44.35766" lon="4.0799">
        <ele>409</ele>
        <time>2012-05-29T13:35:15Z</time>
      </trkpt>
      <trkpt lat="44.35766" lon="4.08003">
        <ele>407.75</ele>
        <time>2012-05-29T13:35:27Z</time>
      </trkpt>
      <trkpt lat="44.35764" lon="4.08016">
        <ele>407</ele>
        <time>2012-05-29T13:35:38Z</time>
      </trkpt>
      <trkpt lat="44.35767" lon="4.0803">
        <ele>407</ele>
        <time>2012-05-29T13:35:48Z</time>
      </trkpt>
      <trkpt lat="44.35767" lon="4.08043">
        <ele>406</ele>
        <time>2012-05-29T13:35:58Z</time>
      </trkpt>
      <trkpt lat="44.35766" lon="4.08058">
        <ele>405.75</ele>
        <time>2012-05-29T13:36:35Z</time>
      </trkpt>
      <trkpt lat="44.35766" lon="4.08082">
        <ele>405.75</ele>
        <time>2012-05-29T13:36:38Z</time>
      </trkpt>
      <trkpt lat="44.35766" lon="4.08096">
        <ele>406</ele>
        <time>2012-05-29T13:36:40Z</time>
      </trkpt>
      <trkpt lat="44.35765" lon="4.08109">
        <ele>406</ele>
        <time>2012-05-29T13:36:48Z</time>
      </trkpt>
      <trkpt lat="44.35762" lon="4.08121">
        <ele>406.5</ele>
        <time>2012-05-29T13:36:59Z</time>
      </trkpt>
      <trkpt lat="44.35761" lon="4.08134">
        <ele>407</ele>
        <time>2012-05-29T13:37:07Z</time>
      </trkpt>
      <trkpt lat="44.35761" lon="4.08148">
        <ele>407.25</ele>
        <time>2012-05-29T13:37:16Z</time>
      </trkpt>
      <trkpt lat="44.35761" lon="4.08162">
        <ele>407.75</ele>
        <time>2012-05-29T13:37:25Z</time>
      </trkpt>
      <trkpt lat="44.35765" lon="4.08175">
        <ele>408</ele>
        <time>2012-05-29T13:37:36Z</time>
      </trkpt>
      <trkpt lat="44.35763" lon="4.08189">
        <ele>408</ele>
        <time>2012-05-29T13:37:46Z</time>
      </trkpt>
      <trkpt lat="44.35765" lon="4.08202">
        <ele>409</ele>
        <time>2012-05-29T13:37:58Z</time>
      </trkpt>
      <trkpt lat="44.35774" lon="4.08208">
        <ele>411</ele>
        <time>2012-05-29T13:38:12Z</time>
      </trkpt>
      <trkpt lat="44.35782" lon="4.08201">
        <ele>413.75</ele>
        <time>2012-05-29T13:38:40Z</time>
      </trkpt>
      <trkpt lat="44.35785" lon="4.08189">
        <ele>413.5</ele>
        <time>2012-05-29T13:38:52Z</time>
      </trkpt>
      <trkpt lat="44.35789" lon="4.08178">
        <ele>413</ele>
        <time>2012-05-29T13:39:01Z</time>
      </trkpt>
      <trkpt lat="44.35793" lon="4.08165">
        <ele>413.5</ele>
        <time>2012-05-29T13:39:14Z</time>
      </trkpt>
      <trkpt lat="44.35798" lon="4.08154">
        <ele>413.75</ele>
        <time>2012-05-29T13:39:23Z</time>
      </trkpt>
      <trkpt lat="44.35802" lon="4.08142">
        <ele>414</ele>
        <time>2012-05-29T13:39:34Z</time>
      </trkpt>
      <trkpt lat="44.35807" lon="4.0813">
        <ele>414</ele>
        <time>2012-05-29T13:39:43Z</time>
      </trkpt>
      <trkpt lat="44.35812" lon="4.08119">
        <ele>415</ele>
        <time>2012-05-29T13:39:53Z</time>
      </trkpt>
      <trkpt lat="44.35818" lon="4.08109">
        <ele>415</ele>
        <time>2012-05-29T13:40:04Z</time>
      </trkpt>
      <trkpt lat="44.35824" lon="4.08099">
        <ele>415.5</ele>
        <time>2012-05-29T13:40:15Z</time>
      </trkpt>
      <trkpt lat="44.35828" lon="4.08089">
        <ele>418</ele>
        <time>2012-05-29T13:40:26Z</time>
      </trkpt>
      <trkpt lat="44.35833" lon="4.08077">
        <ele>420</ele>
        <time>2012-05-29T13:40:42Z</time>
      </trkpt>
      <trkpt lat="44.35837" lon="4.08066">
        <ele>420</ele>
        <time>2012-05-29T13:40:52Z</time>
      </trkpt>
      <trkpt lat="44.35843" lon="4.08054">
        <ele>420</ele>
        <time>2012-05-29T13:41:03Z</time>
      </trkpt>
      <trkpt lat="44.35842" lon="4.08041">
        <ele>422</ele>
        <time>2012-05-29T13:41:22Z</time>
      </trkpt>
      <trkpt lat="44.35843" lon="4.08029">
        <ele>421.25</ele>
        <time>2012-05-29T13:41:40Z</time>
      </trkpt>
      <trkpt lat="44.35844" lon="4.08041">
        <ele>428</ele>
        <time>2012-05-29T13:44:23Z</time>
      </trkpt>
      <trkpt lat="44.35852" lon="4.08034">
        <ele>423</ele>
        <time>2012-05-29T13:44:49Z</time>
      </trkpt>
      <trkpt lat="44.35859" lon="4.08025">
        <ele>425</ele>
        <time>2012-05-29T13:45:10Z</time>
      </trkpt>
      <trkpt lat="44.35863" lon="4.08013">
        <ele>428.75</ele>
        <time>2012-05-29T13:45:43Z</time>
      </trkpt>
      <trkpt lat="44.35871" lon="4.08007">
        <ele>430</ele>
        <time>2012-05-29T13:46:02Z</time>
      </trkpt>
      <trkpt lat="44.35878" lon="4.07999">
        <ele>430</ele>
        <time>2012-05-29T13:46:13Z</time>
      </trkpt>
      <trkpt lat="44.35884" lon="4.07989">
        <ele>430.25</ele>
        <time>2012-05-29T13:46:21Z</time>
      </trkpt>
      <trkpt lat="44.3589" lon="4.07979">
        <ele>433</ele>
        <time>2012-05-29T13:46:34Z</time>
      </trkpt>
      <trkpt lat="44.35896" lon="4.07969">
        <ele>436.25</ele>
        <time>2012-05-29T13:46:49Z</time>
      </trkpt>
      <trkpt lat="44.35903" lon="4.0796">
        <ele>437</ele>
        <time>2012-05-29T13:47:00Z</time>
      </trkpt>
      <trkpt lat="44.35911" lon="4.07952">
        <ele>438</ele>
        <time>2012-05-29T13:47:12Z</time>
      </trkpt>
      <trkpt lat="44.35916" lon="4.0794">
        <ele>439.75</ele>
        <time>2012-05-29T13:47:24Z</time>
      </trkpt>
      <trkpt lat="44.35921" lon="4.07929">
        <ele>441</ele>
        <time>2012-05-29T13:47:33Z</time>
      </trkpt>
      <trkpt lat="44.35925" lon="4.07916">
        <ele>442.25</ele>
        <time>2012-05-29T13:47:45Z</time>
      </trkpt>
      <trkpt lat="44.35928" lon="4.07903">
        <ele>442</ele>
        <time>2012-05-29T13:47:56Z</time>
      </trkpt>
      <trkpt lat="44.35929" lon="4.07888">
        <ele>441</ele>
        <time>2012-05-29T13:48:05Z</time>
      </trkpt>
      <trkpt lat="44.35926" lon="4.07876">
        <ele>441.25</ele>
        <time>2012-05-29T13:48:14Z</time>
      </trkpt>
      <trkpt lat="44.35922" lon="4.07864">
        <ele>445.5</ele>
        <time>2012-05-29T13:48:39Z</time>
      </trkpt>
      <trkpt lat="44.35923" lon="4.07852">
        <ele>450</ele>
        <time>2012-05-29T13:48:56Z</time>
      </trkpt>
      <trkpt lat="44.35928" lon="4.07841">
        <ele>454.75</ele>
        <time>2012-05-29T13:49:26Z</time>
      </trkpt>
      <trkpt lat="44.35937" lon="4.0784">
        <ele>454.5</ele>
        <time>2012-05-29T13:49:36Z</time>
      </trkpt>
      <trkpt lat="44.35945" lon="4.07847">
        <ele>450</ele>
        <time>2012-05-29T13:49:52Z</time>
      </trkpt>
      <trkpt lat="44.35954" lon="4.07849">
        <ele>451.25</ele>
        <time>2012-05-29T13:50:14Z</time>
      </trkpt>
      <trkpt lat="44.35963" lon="4.07854">
        <ele>449.25</ele>
        <time>2012-05-29T13:50:24Z</time>
      </trkpt>
      <trkpt lat="44.35969" lon="4.07864">
        <ele>448.5</ele>
        <time>2012-05-29T13:50:36Z</time>
      </trkpt>
      <trkpt lat="44.35977" lon="4.07871">
        <ele>446</ele>
        <time>2012-05-29T13:50:53Z</time>
      </trkpt>
      <trkpt lat="44.35983" lon="4.07881">
        <ele>442.5</ele>
        <time>2012-05-29T13:51:08Z</time>
      </trkpt>
      <trkpt lat="44.35982" lon="4.07894">
        <ele>438</ele>
        <time>2012-05-29T13:51:24Z</time>
      </trkpt>
      <trkpt lat="44.35983" lon="4.07907">
        <ele>435.5</ele>
        <time>2012-05-29T13:51:41Z</time>
      </trkpt>
      <trkpt lat="44.35982" lon="4.0792">
        <ele>434.5</ele>
        <time>2012-05-29T13:51:53Z</time>
      </trkpt>
      <trkpt lat="44.35982" lon="4.07934">
        <ele>434.5</ele>
        <time>2012-05-29T13:52:39Z</time>
      </trkpt>
      <trkpt lat="44.3598" lon="4.07952">
        <ele>434</ele>
        <time>2012-05-29T13:52:41Z</time>
      </trkpt>
      <trkpt lat="44.35973" lon="4.0796">
        <ele>434.75</ele>
        <time>2012-05-29T13:53:10Z</time>
      </trkpt>
      <trkpt lat="44.35975" lon="4.07948">
        <ele>436</ele>
        <time>2012-05-29T13:53:33Z</time>
      </trkpt>
      <trkpt lat="44.35984" lon="4.07947">
        <ele>439</ele>
        <time>2012-05-29T13:54:01Z</time>
      </trkpt>
      <trkpt lat="44.35994" lon="4.07944">
        <ele>442</ele>
        <time>2012-05-29T13:55:27Z</time>
      </trkpt>
      <trkpt lat="44.36003" lon="4.07945">
        <ele>440.5</ele>
        <time>2012-05-29T13:55:48Z</time>
      </trkpt>
      <trkpt lat="44.36003" lon="4.07958">
        <ele>432.25</ele>
        <time>2012-05-29T13:56:01Z</time>
      </trkpt>
      <trkpt lat="44.35999" lon="4.0797">
        <ele>431.25</ele>
        <time>2012-05-29T13:56:26Z</time>
      </trkpt>
      <trkpt lat="44.36005" lon="4.0798">
        <ele>431</ele>
        <time>2012-05-29T13:56:38Z</time>
      </trkpt>
      <trkpt lat="44.36012" lon="4.07973">
        <ele>425.25</ele>
        <time>2012-05-29T13:57:12Z</time>
      </trkpt>
      <trkpt lat="44.36021" lon="4.07969">
        <ele>427.25</ele>
        <time>2012-05-29T13:57:30Z</time>
      </trkpt>
      <trkpt lat="44.3603" lon="4.07969">
        <ele>432.75</ele>
        <time>2012-05-29T13:57:43Z</time>
      </trkpt>
      <trkpt lat="44.36039" lon="4.07965">
        <ele>432</ele>
        <time>2012-05-29T13:58:28Z</time>
      </trkpt>
      <trkpt lat="44.36036" lon="4.07977">
        <ele>430.5</ele>
        <time>2012-05-29T13:59:23Z</time>
      </trkpt>
      <trkpt lat="44.36029" lon="4.07984">
        <ele>428</ele>
        <time>2012-05-29T14:00:33Z</time>
      </trkpt>
      <trkpt lat="44.36031" lon="4.07982">
        <ele>430.25</ele>
        <time>2012-05-29T14:01:33Z</time>
      </trkpt>
      <trkpt lat="44.36039" lon="4.0798">
        <ele>441</ele>
        <time>2012-05-29T14:07:48Z</time>
      </trkpt>
      <trkpt lat="44.36048" lon="4.07983">
        <ele>440.25</ele>
        <time>2012-05-29T14:08:14Z</time>
      </trkpt>
      <trkpt lat="44.36049" lon="4.07995">
        <ele>443.75</ele>
        <time>2012-05-29T14:09:06Z</time>
      </trkpt>
      <trkpt lat="44.36049" lon="4.08008">
        <ele>442.75</ele>
        <time>2012-05-29T14:09:15Z</time>
      </trkpt>
      <trkpt lat="44.36046" lon="4.0802">
        <ele>441</ele>
        <time>2012-05-29T14:09:31Z</time>
      </trkpt>
      <trkpt lat="44.36041" lon="4.08031">
        <ele>443.75</ele>
        <time>2012-05-29T14:10:01Z</time>
      </trkpt>
      <trkpt lat="44.36041" lon="4.08044">
        <ele>444</ele>
        <time>2012-05-29T14:10:13Z</time>
      </trkpt>
      <trkpt lat="44.36045" lon="4.08056">
        <ele>444.5</ele>
        <time>2012-05-29T14:10:31Z</time>
      </trkpt>
      <trkpt lat="44.36052" lon="4.08065">
        <ele>446</ele>
        <time>2012-05-29T14:11:05Z</time>
      </trkpt>
      <trkpt lat="44.36059" lon="4.08072">
        <ele>449.25</ele>
        <time>2012-05-29T14:11:24Z</time>
      </trkpt>
      <trkpt lat="44.36064" lon="4.08084">
        <ele>452.25</ele>
        <time>2012-05-29T14:11:46Z</time>
      </trkpt>
      <trkpt lat="44.36073" lon="4.08088">
        <ele>458.75</ele>
        <time>2012-05-29T14:12:16Z</time>
      </trkpt>
      <trkpt lat="44.36082" lon="4.08091">
        <ele>459</ele>
        <time>2012-05-29T14:12:35Z</time>
      </trkpt>
      <trkpt lat="44.36091" lon="4.08096">
        <ele>457</ele>
        <time>2012-05-29T14:12:47Z</time>
      </trkpt>
      <trkpt lat="44.36099" lon="4.08098">
        <ele>460.75</ele>
        <time>2012-05-29T14:13:16Z</time>
      </trkpt>
      <trkpt lat="44.36106" lon="4.08089">
        <ele>463</ele>
        <time>2012-05-29T14:13:40Z</time>
      </trkpt>
      <trkpt lat="44.36115" lon="4.08087">
        <ele>463</ele>
        <time>2012-05-29T14:13:52Z</time>
      </trkpt>
      <trkpt lat="44.36124" lon="4.08091">
        <ele>465.5</ele>
        <time>2012-05-29T14:14:07Z</time>
      </trkpt>
      <trkpt lat="44.36133" lon="4.08093">
        <ele>468</ele>
        <time>2012-05-29T14:14:47Z</time>
      </trkpt>
      <trkpt lat="44.36143" lon="4.08096">
        <ele>469.5</ele>
        <time>2012-05-29T14:14:56Z</time>
      </trkpt>
      <trkpt lat="44.36154" lon="4.081">
        <ele>472.5</ele>
        <time>2012-05-29T14:15:38Z</time>
      </trkpt>
      <trkpt lat="44.36168" lon="4.08109">
        <ele>475.5</ele>
        <time>2012-05-29T14:15:41Z</time>
      </trkpt>
      <trkpt lat="44.36177" lon="4.08111">
        <ele>477</ele>
        <time>2012-05-29T14:15:43Z</time>
      </trkpt>
      <trkpt lat="44.36186" lon="4.08116">
        <ele>478</ele>
        <time>2012-05-29T14:15:55Z</time>
      </trkpt>
      <trkpt lat="44.36193" lon="4.08124">
        <ele>481.75</ele>
        <time>2012-05-29T14:17:08Z</time>
      </trkpt>
      <trkpt lat="44.36201" lon="4.08131">
        <ele>481</ele>
        <time>2012-05-29T14:20:37Z</time>
      </trkpt>
      <trkpt lat="44.36209" lon="4.08139">
        <ele>481.5</ele>
        <time>2012-05-29T14:20:47Z</time>
      </trkpt>
      <trkpt lat="44.36218" lon="4.08141">
        <ele>482.25</ele>
        <time>2012-05-29T14:20:57Z</time>
      </trkpt>
      <trkpt lat="44.36227" lon="4.08145">
        <ele>482.25</ele>
        <time>2012-05-29T14:21:08Z</time>
      </trkpt>
      <trkpt lat="44.36236" lon="4.08149">
        <ele>483.5</ele>
        <time>2012-05-29T14:21:21Z</time>
      </trkpt>
      <trkpt lat="44.36244" lon="4.08158">
        <ele>485</ele>
        <time>2012-05-29T14:21:29Z</time>
      </trkpt>
      <trkpt lat="44.36253" lon="4.08161">
        <ele>486</ele>
        <time>2012-05-29T14:21:43Z</time>
      </trkpt>
      <trkpt lat="44.36263" lon="4.08163">
        <ele>486</ele>
        <time>2012-05-29T14:21:54Z</time>
      </trkpt>
      <trkpt lat="44.36272" lon="4.08166">
        <ele>489</ele>
        <time>2012-05-29T14:22:11Z</time>
      </trkpt>
      <trkpt lat="44.36281" lon="4.08169">
        <ele>490</ele>
        <time>2012-05-29T14:22:21Z</time>
      </trkpt>
      <trkpt lat="44.36289" lon="4.08177">
        <ele>489.75</ele>
        <time>2012-05-29T14:22:32Z</time>
      </trkpt>
      <trkpt lat="44.36297" lon="4.08183">
        <ele>489</ele>
        <time>2012-05-29T14:22:44Z</time>
      </trkpt>
      <trkpt lat="44.36305" lon="4.08189">
        <ele>488.75</ele>
        <time>2012-05-29T14:22:57Z</time>
      </trkpt>
      <trkpt lat="44.36309" lon="4.08201">
        <ele>489.75</ele>
        <time>2012-05-29T14:23:15Z</time>
      </trkpt>
      <trkpt lat="44.36315" lon="4.0821">
        <ele>488</ele>
        <time>2012-05-29T14:23:24Z</time>
      </trkpt>
      <trkpt lat="44.36324" lon="4.08215">
        <ele>490</ele>
        <time>2012-05-29T14:23:59Z</time>
      </trkpt>
      <trkpt lat="44.36327" lon="4.08227">
        <ele>490</ele>
        <time>2012-05-29T14:24:15Z</time>
      </trkpt>
      <trkpt lat="44.36333" lon="4.08238">
        <ele>490</ele>
        <time>2012-05-29T14:24:26Z</time>
      </trkpt>
      <trkpt lat="44.36325" lon="4.08244">
        <ele>492.5</ele>
        <time>2012-05-29T14:24:40Z</time>
      </trkpt>
      <trkpt lat="44.36332" lon="4.08252">
        <ele>493</ele>
        <time>2012-05-29T14:25:09Z</time>
      </trkpt>
      <trkpt lat="44.36341" lon="4.08248">
        <ele>491.5</ele>
        <time>2012-05-29T14:25:22Z</time>
      </trkpt>
      <trkpt lat="44.36349" lon="4.08253">
        <ele>492</ele>
        <time>2012-05-29T14:25:40Z</time>
      </trkpt>
      <trkpt lat="44.36357" lon="4.0826">
        <ele>491</ele>
        <time>2012-05-29T14:26:02Z</time>
      </trkpt>
      <trkpt lat="44.36366" lon="4.08265">
        <ele>491</ele>
        <time>2012-05-29T14:26:14Z</time>
      </trkpt>
      <trkpt lat="44.36376" lon="4.08266">
        <ele>490</ele>
        <time>2012-05-29T14:26:23Z</time>
      </trkpt>
      <trkpt lat="44.36382" lon="4.08275">
        <ele>490.75</ele>
        <time>2012-05-29T14:26:36Z</time>
      </trkpt>
      <trkpt lat="44.36387" lon="4.08287">
        <ele>494.5</ele>
        <time>2012-05-29T14:27:21Z</time>
      </trkpt>
      <trkpt lat="44.3638" lon="4.08295">
        <ele>490.75</ele>
        <time>2012-05-29T14:27:30Z</time>
      </trkpt>
      <trkpt lat="44.36388" lon="4.08289">
        <ele>494.5</ele>
        <time>2012-05-29T14:28:05Z</time>
      </trkpt>
      <trkpt lat="44.36397" lon="4.08293">
        <ele>498</ele>
        <time>2012-05-29T14:28:17Z</time>
      </trkpt>
      <trkpt lat="44.36403" lon="4.08303">
        <ele>500</ele>
        <time>2012-05-29T14:28:28Z</time>
      </trkpt>
      <trkpt lat="44.36407" lon="4.08314">
        <ele>498.5</ele>
        <time>2012-05-29T14:28:37Z</time>
      </trkpt>
      <trkpt lat="44.36409" lon="4.08327">
        <ele>495.25</ele>
        <time>2012-05-29T14:28:50Z</time>
      </trkpt>
      <trkpt lat="44.36413" lon="4.08339">
        <ele>495</ele>
        <time>2012-05-29T14:29:02Z</time>
      </trkpt>
      <trkpt lat="44.36421" lon="4.08345">
        <ele>496</ele>
        <time>2012-05-29T14:29:13Z</time>
      </trkpt>
      <trkpt lat="44.36422" lon="4.08357">
        <ele>496.5</ele>
        <time>2012-05-29T14:29:29Z</time>
      </trkpt>
      <trkpt lat="44.3642" lon="4.0837">
        <ele>496.75</ele>
        <time>2012-05-29T14:30:07Z</time>
      </trkpt>
      <trkpt lat="44.36422" lon="4.08382">
        <ele>496</ele>
        <time>2012-05-29T14:30:28Z</time>
      </trkpt>
      <trkpt lat="44.36419" lon="4.08394">
        <ele>494.25</ele>
        <time>2012-05-29T14:30:46Z</time>
      </trkpt>
      <trkpt lat="44.36424" lon="4.08405">
        <ele>489.75</ele>
        <time>2012-05-29T14:30:55Z</time>
      </trkpt>
      <trkpt lat="44.36434" lon="4.08409">
        <ele>488.5</ele>
        <time>2012-05-29T14:31:37Z</time>
      </trkpt>
      <trkpt lat="44.3644" lon="4.08421">
        <ele>488</ele>
        <time>2012-05-29T14:31:46Z</time>
      </trkpt>
      <trkpt lat="44.36441" lon="4.08435">
        <ele>487</ele>
        <time>2012-05-29T14:31:52Z</time>
      </trkpt>
      <trkpt lat="44.36443" lon="4.08448">
        <ele>484.75</ele>
        <time>2012-05-29T14:31:58Z</time>
      </trkpt>
      <trkpt lat="44.36441" lon="4.08461">
        <ele>484</ele>
        <time>2012-05-29T14:32:05Z</time>
      </trkpt>
      <trkpt lat="44.36442" lon="4.08474">
        <ele>484</ele>
        <time>2012-05-29T14:32:13Z</time>
      </trkpt>
      <trkpt lat="44.36445" lon="4.08486">
        <ele>483.75</ele>
        <time>2012-05-29T14:32:20Z</time>
      </trkpt>
      <trkpt lat="44.3644" lon="4.08497">
        <ele>482.75</ele>
        <time>2012-05-29T14:32:26Z</time>
      </trkpt>
      <trkpt lat="44.36431" lon="4.08505">
        <ele>483</ele>
        <time>2012-05-29T14:32:32Z</time>
      </trkpt>
      <trkpt lat="44.36424" lon="4.08514">
        <ele>483.5</ele>
        <time>2012-05-29T14:32:39Z</time>
      </trkpt>
      <trkpt lat="44.36415" lon="4.08512">
        <ele>483.5</ele>
        <time>2012-05-29T14:32:46Z</time>
      </trkpt>
      <trkpt lat="44.36407" lon="4.08503">
        <ele>482</ele>
        <time>2012-05-29T14:32:56Z</time>
      </trkpt>
      <trkpt lat="44.36397" lon="4.08492">
        <ele>480</ele>
        <time>2012-05-29T14:33:35Z</time>
      </trkpt>
      <trkpt lat="44.36386" lon="4.08474">
        <ele>476</ele>
        <time>2012-05-29T14:33:37Z</time>
      </trkpt>
      <trkpt lat="44.3638" lon="4.08464">
        <ele>474</ele>
        <time>2012-05-29T14:33:38Z</time>
      </trkpt>
      <trkpt lat="44.36375" lon="4.08453">
        <ele>472.5</ele>
        <time>2012-05-29T14:33:46Z</time>
      </trkpt>
      <trkpt lat="44.36368" lon="4.08445">
        <ele>472</ele>
        <time>2012-05-29T14:33:54Z</time>
      </trkpt>
      <trkpt lat="44.36361" lon="4.08438">
        <ele>472</ele>
        <time>2012-05-29T14:34:02Z</time>
      </trkpt>
      <trkpt lat="44.36355" lon="4.08427">
        <ele>470.75</ele>
        <time>2012-05-29T14:34:16Z</time>
      </trkpt>
      <trkpt lat="44.36347" lon="4.0842">
        <ele>469.25</ele>
        <time>2012-05-29T14:34:26Z</time>
      </trkpt>
      <trkpt lat="44.36337" lon="4.0842">
        <ele>472</ele>
        <time>2012-05-29T14:34:41Z</time>
      </trkpt>
      <trkpt lat="44.36329" lon="4.08414">
        <ele>474</ele>
        <time>2012-05-29T14:34:49Z</time>
      </trkpt>
      <trkpt lat="44.36319" lon="4.08409">
        <ele>474.25</ele>
        <time>2012-05-29T14:34:57Z</time>
      </trkpt>
      <trkpt lat="44.36309" lon="4.08407">
        <ele>475.25</ele>
        <time>2012-05-29T14:35:08Z</time>
      </trkpt>
      <trkpt lat="44.36302" lon="4.08398">
        <ele>474.75</ele>
        <time>2012-05-29T14:35:16Z</time>
      </trkpt>
      <trkpt lat="44.36303" lon="4.08386">
        <ele>464</ele>
        <time>2012-05-29T14:35:34Z</time>
      </trkpt>
      <trkpt lat="44.36301" lon="4.08398">
        <ele>463</ele>
        <time>2012-05-29T14:36:17Z</time>
      </trkpt>
      <trkpt lat="44.36307" lon="4.08409">
        <ele>462.75</ele>
        <time>2012-05-29T14:36:43Z</time>
      </trkpt>
      <trkpt lat="44.36312" lon="4.08419">
        <ele>461.5</ele>
        <time>2012-05-29T14:36:54Z</time>
      </trkpt>
      <trkpt lat="44.36319" lon="4.0843">
        <ele>461.75</ele>
        <time>2012-05-29T14:37:01Z</time>
      </trkpt>
      <trkpt lat="44.36324" lon="4.08441">
        <ele>461.5</ele>
        <time>2012-05-29T14:37:19Z</time>
      </trkpt>
      <trkpt lat="44.3633" lon="4.08451">
        <ele>460.25</ele>
        <time>2012-05-29T14:37:29Z</time>
      </trkpt>
      <trkpt lat="44.36333" lon="4.08463">
        <ele>462.5</ele>
        <time>2012-05-29T14:37:38Z</time>
      </trkpt>
      <trkpt lat="44.36337" lon="4.08475">
        <ele>464.25</ele>
        <time>2012-05-29T14:37:47Z</time>
      </trkpt>
      <trkpt lat="44.3634" lon="4.08488">
        <ele>467</ele>
        <time>2012-05-29T14:37:56Z</time>
      </trkpt>
      <trkpt lat="44.36333" lon="4.08498">
        <ele>469.25</ele>
        <time>2012-05-29T14:38:03Z</time>
      </trkpt>
      <trkpt lat="44.36328" lon="4.08509">
        <ele>470.25</ele>
        <time>2012-05-29T14:38:12Z</time>
      </trkpt>
      <trkpt lat="44.3632" lon="4.08516">
        <ele>470</ele>
        <time>2012-05-29T14:38:19Z</time>
      </trkpt>
      <trkpt lat="44.36318" lon="4.08528">
        <ele>467</ele>
        <time>2012-05-29T14:38:34Z</time>
      </trkpt>
      <trkpt lat="44.3631" lon="4.08536">
        <ele>464.5</ele>
        <time>2012-05-29T14:38:45Z</time>
      </trkpt>
      <trkpt lat="44.36304" lon="4.08546">
        <ele>463.5</ele>
        <time>2012-05-29T14:38:59Z</time>
      </trkpt>
      <trkpt lat="44.36297" lon="4.08556">
        <ele>463.25</ele>
        <time>2012-05-29T14:39:12Z</time>
      </trkpt>
      <trkpt lat="44.36291" lon="4.08566">
        <ele>462</ele>
        <time>2012-05-29T14:39:22Z</time>
      </trkpt>
      <trkpt lat="44.36283" lon="4.08572">
        <ele>460</ele>
        <time>2012-05-29T14:39:30Z</time>
      </trkpt>
      <trkpt lat="44.36277" lon="4.08582">
        <ele>457.75</ele>
        <time>2012-05-29T14:39:42Z</time>
      </trkpt>
      <trkpt lat="44.36269" lon="4.0859">
        <ele>456</ele>
        <time>2012-05-29T14:39:52Z</time>
      </trkpt>
      <trkpt lat="44.36261" lon="4.08596">
        <ele>455</ele>
        <time>2012-05-29T14:40:00Z</time>
      </trkpt>
      <trkpt lat="44.36252" lon="4.086">
        <ele>453.75</ele>
        <time>2012-05-29T14:40:09Z</time>
      </trkpt>
      <trkpt lat="44.36243" lon="4.08606">
        <ele>451.5</ele>
        <time>2012-05-29T14:40:20Z</time>
      </trkpt>
      <trkpt lat="44.36235" lon="4.0861">
        <ele>449.75</ele>
        <time>2012-05-29T14:40:27Z</time>
      </trkpt>
      <trkpt lat="44.36225" lon="4.08615">
        <ele>447.75</ele>
        <time>2012-05-29T14:40:37Z</time>
      </trkpt>
      <trkpt lat="44.36216" lon="4.0862">
        <ele>446</ele>
        <time>2012-05-29T14:40:47Z</time>
      </trkpt>
      <trkpt lat="44.36208" lon="4.08624">
        <ele>445.25</ele>
        <time>2012-05-29T14:40:57Z</time>
      </trkpt>
      <trkpt lat="44.362" lon="4.08631">
        <ele>444</ele>
        <time>2012-05-29T14:41:07Z</time>
      </trkpt>
      <trkpt lat="44.3619" lon="4.08637">
        <ele>442.5</ele>
        <time>2012-05-29T14:41:17Z</time>
      </trkpt>
      <trkpt lat="44.36182" lon="4.08643">
        <ele>440.5</ele>
        <time>2012-05-29T14:41:28Z</time>
      </trkpt>
      <trkpt lat="44.36179" lon="4.08654">
        <ele>438</ele>
        <time>2012-05-29T14:41:47Z</time>
      </trkpt>
      <trkpt lat="44.36181" lon="4.08667">
        <ele>439</ele>
        <time>2012-05-29T14:42:03Z</time>
      </trkpt>
      <trkpt lat="44.36181" lon="4.08681">
        <ele>439.5</ele>
        <time>2012-05-29T14:42:14Z</time>
      </trkpt>
      <trkpt lat="44.36185" lon="4.08693">
        <ele>440</ele>
        <time>2012-05-29T14:42:28Z</time>
      </trkpt>
      <trkpt lat="44.36193" lon="4.087">
        <ele>441.25</ele>
        <time>2012-05-29T14:42:40Z</time>
      </trkpt>
      <trkpt lat="44.36192" lon="4.08714">
        <ele>441</ele>
        <time>2012-05-29T14:42:51Z</time>
      </trkpt>
      <trkpt lat="44.36193" lon="4.08726">
        <ele>441</ele>
        <time>2012-05-29T14:42:59Z</time>
      </trkpt>
      <trkpt lat="44.36199" lon="4.08738">
        <ele>440</ele>
        <time>2012-05-29T14:43:10Z</time>
      </trkpt>
      <trkpt lat="44.36203" lon="4.0875">
        <ele>438</ele>
        <time>2012-05-29T14:43:19Z</time>
      </trkpt>
      <trkpt lat="44.36205" lon="4.08762">
        <ele>437</ele>
        <time>2012-05-29T14:43:30Z</time>
      </trkpt>
      <trkpt lat="44.36209" lon="4.08775">
        <ele>436.5</ele>
        <time>2012-05-29T14:43:42Z</time>
      </trkpt>
      <trkpt lat="44.36214" lon="4.08786">
        <ele>436</ele>
        <time>2012-05-29T14:43:52Z</time>
      </trkpt>
      <trkpt lat="44.36217" lon="4.08799">
        <ele>434</ele>
        <time>2012-05-29T14:44:03Z</time>
      </trkpt>
      <trkpt lat="44.36219" lon="4.08812">
        <ele>433</ele>
        <time>2012-05-29T14:44:11Z</time>
      </trkpt>
      <trkpt lat="44.36222" lon="4.08825">
        <ele>432</ele>
        <time>2012-05-29T14:44:21Z</time>
      </trkpt>
      <trkpt lat="44.36225" lon="4.08838">
        <ele>433</ele>
        <time>2012-05-29T14:44:29Z</time>
      </trkpt>
      <trkpt lat="44.3623" lon="4.08849">
        <ele>431.75</ele>
        <time>2012-05-29T14:44:42Z</time>
      </trkpt>
      <trkpt lat="44.36229" lon="4.08862">
        <ele>430</ele>
        <time>2012-05-29T14:44:51Z</time>
      </trkpt>
      <trkpt lat="44.3623" lon="4.08883">
        <ele>428.5</ele>
        <time>2012-05-29T14:45:35Z</time>
      </trkpt>
      <trkpt lat="44.36229" lon="4.08907">
        <ele>428.5</ele>
        <time>2012-05-29T14:45:37Z</time>
      </trkpt>
      <trkpt lat="44.36228" lon="4.08921">
        <ele>428.25</ele>
        <time>2012-05-29T14:45:40Z</time>
      </trkpt>
      <trkpt lat="44.36231" lon="4.08933">
        <ele>429</ele>
        <time>2012-05-29T14:45:49Z</time>
      </trkpt>
      <trkpt lat="44.36232" lon="4.08946">
        <ele>428.5</ele>
        <time>2012-05-29T14:45:58Z</time>
      </trkpt>
      <trkpt lat="44.36232" lon="4.08959">
        <ele>425.25</ele>
        <time>2012-05-29T14:46:07Z</time>
      </trkpt>
      <trkpt lat="44.36233" lon="4.08972">
        <ele>424</ele>
        <time>2012-05-29T14:46:16Z</time>
      </trkpt>
      <trkpt lat="44.36237" lon="4.08984">
        <ele>419.75</ele>
        <time>2012-05-29T14:46:27Z</time>
      </trkpt>
      <trkpt lat="44.36243" lon="4.08995">
        <ele>415.5</ele>
        <time>2012-05-29T14:46:40Z</time>
      </trkpt>
      <trkpt lat="44.36248" lon="4.09006">
        <ele>415.75</ele>
        <time>2012-05-29T14:46:51Z</time>
      </trkpt>
      <trkpt lat="44.36253" lon="4.09016">
        <ele>416.5</ele>
        <time>2012-05-29T14:47:01Z</time>
      </trkpt>
      <trkpt lat="44.36259" lon="4.09027">
        <ele>416</ele>
        <time>2012-05-29T14:47:07Z</time>
      </trkpt>
      <trkpt lat="44.36263" lon="4.09039">
        <ele>415</ele>
        <time>2012-05-29T14:47:15Z</time>
      </trkpt>
      <trkpt lat="44.36268" lon="4.0905">
        <ele>413</ele>
        <time>2012-05-29T14:47:26Z</time>
      </trkpt>
      <trkpt lat="44.36273" lon="4.0906">
        <ele>412.25</ele>
        <time>2012-05-29T14:47:36Z</time>
      </trkpt>
      <trkpt lat="44.36282" lon="4.09059">
        <ele>410</ele>
        <time>2012-05-29T14:47:51Z</time>
      </trkpt>
      <trkpt lat="44.36286" lon="4.09046">
        <ele>408.5</ele>
        <time>2012-05-29T14:48:08Z</time>
      </trkpt>
      <trkpt lat="44.36291" lon="4.09036">
        <ele>408</ele>
        <time>2012-05-29T14:48:18Z</time>
      </trkpt>
      <trkpt lat="44.36297" lon="4.09026">
        <ele>407</ele>
        <time>2012-05-29T14:48:30Z</time>
      </trkpt>
      <trkpt lat="44.36301" lon="4.09015">
        <ele>408.5</ele>
        <time>2012-05-29T14:48:43Z</time>
      </trkpt>
      <trkpt lat="44.36308" lon="4.09005">
        <ele>409</ele>
        <time>2012-05-29T14:48:50Z</time>
      </trkpt>
      <trkpt lat="44.36317" lon="4.08998">
        <ele>408</ele>
        <time>2012-05-29T14:49:00Z</time>
      </trkpt>
      <trkpt lat="44.36323" lon="4.0899">
        <ele>407.75</ele>
        <time>2012-05-29T14:49:08Z</time>
      </trkpt>
      <trkpt lat="44.36332" lon="4.08982">
        <ele>406</ele>
        <time>2012-05-29T14:49:15Z</time>
      </trkpt>
      <trkpt lat="44.36339" lon="4.08974">
        <ele>405</ele>
        <time>2012-05-29T14:49:25Z</time>
      </trkpt>
      <trkpt lat="44.36347" lon="4.08968">
        <ele>405</ele>
        <time>2012-05-29T14:49:41Z</time>
      </trkpt>
      <trkpt lat="44.36355" lon="4.08961">
        <ele>404</ele>
        <time>2012-05-29T14:49:50Z</time>
      </trkpt>
      <trkpt lat="44.36364" lon="4.08957">
        <ele>403.5</ele>
        <time>2012-05-29T14:50:02Z</time>
      </trkpt>
      <trkpt lat="44.36373" lon="4.08954">
        <ele>403</ele>
        <time>2012-05-29T14:50:11Z</time>
      </trkpt>
      <trkpt lat="44.36381" lon="4.08948">
        <ele>403</ele>
        <time>2012-05-29T14:50:22Z</time>
      </trkpt>
      <trkpt lat="44.36389" lon="4.08941">
        <ele>404</ele>
        <time>2012-05-29T14:50:31Z</time>
      </trkpt>
      <trkpt lat="44.36399" lon="4.08936">
        <ele>404</ele>
        <time>2012-05-29T14:50:39Z</time>
      </trkpt>
      <trkpt lat="44.36408" lon="4.08933">
        <ele>404.5</ele>
        <time>2012-05-29T14:50:45Z</time>
      </trkpt>
      <trkpt lat="44.36417" lon="4.08937">
        <ele>404.5</ele>
        <time>2012-05-29T14:50:52Z</time>
      </trkpt>
      <trkpt lat="44.3642" lon="4.08949">
        <ele>402.75</ele>
        <time>2012-05-29T14:51:06Z</time>
      </trkpt>
      <trkpt lat="44.36428" lon="4.08956">
        <ele>407</ele>
        <time>2012-05-29T14:52:09Z</time>
      </trkpt>
      <trkpt lat="44.36436" lon="4.08962">
        <ele>413</ele>
        <time>2012-05-29T14:53:19Z</time>
      </trkpt>
      <trkpt lat="44.3643" lon="4.08952">
        <ele>408</ele>
        <time>2012-05-29T14:54:42Z</time>
      </trkpt>
      <trkpt lat="44.36421" lon="4.0895">
        <ele>406.5</ele>
        <time>2012-05-29T14:54:54Z</time>
      </trkpt>
      <trkpt lat="44.36411" lon="4.08947">
        <ele>405</ele>
        <time>2012-05-29T14:55:41Z</time>
      </trkpt>
      <trkpt lat="44.36414" lon="4.0896">
        <ele>407</ele>
        <time>2012-05-29T14:56:36Z</time>
      </trkpt>
      <trkpt lat="44.3641" lon="4.08972">
        <ele>407</ele>
        <time>2012-05-29T14:56:50Z</time>
      </trkpt>
      <trkpt lat="44.3641" lon="4.08985">
        <ele>409.25</ele>
        <time>2012-05-29T14:57:02Z</time>
      </trkpt>
      <trkpt lat="44.36401" lon="4.08993">
        <ele>411</ele>
        <time>2012-05-29T14:57:11Z</time>
      </trkpt>
      <trkpt lat="44.36392" lon="4.08998">
        <ele>410.5</ele>
        <time>2012-05-29T14:57:19Z</time>
      </trkpt>
      <trkpt lat="44.36382" lon="4.09001">
        <ele>408.5</ele>
        <time>2012-05-29T14:57:27Z</time>
      </trkpt>
      <trkpt lat="44.36373" lon="4.09004">
        <ele>407.5</ele>
        <time>2012-05-29T14:57:38Z</time>
      </trkpt>
      <trkpt lat="44.36367" lon="4.09014">
        <ele>409</ele>
        <time>2012-05-29T14:57:50Z</time>
      </trkpt>
      <trkpt lat="44.36361" lon="4.09024">
        <ele>408.5</ele>
        <time>2012-05-29T14:58:02Z</time>
      </trkpt>
      <trkpt lat="44.36359" lon="4.09037">
        <ele>408.75</ele>
        <time>2012-05-29T14:58:13Z</time>
      </trkpt>
      <trkpt lat="44.36356" lon="4.0905">
        <ele>411.25</ele>
        <time>2012-05-29T14:58:22Z</time>
      </trkpt>
      <trkpt lat="44.36352" lon="4.09061">
        <ele>411.5</ele>
        <time>2012-05-29T14:58:31Z</time>
      </trkpt>
      <trkpt lat="44.36346" lon="4.09071">
        <ele>410</ele>
        <time>2012-05-29T14:58:51Z</time>
      </trkpt>
      <trkpt lat="44.36345" lon="4.09092">
        <ele>410</ele>
        <time>2012-05-29T14:59:36Z</time>
      </trkpt>
      <trkpt lat="44.36343" lon="4.09113">
        <ele>406.75</ele>
        <time>2012-05-29T14:59:38Z</time>
      </trkpt>
      <trkpt lat="44.36343" lon="4.09127">
        <ele>403.5</ele>
        <time>2012-05-29T14:59:41Z</time>
      </trkpt>
      <trkpt lat="44.36348" lon="4.09138">
        <ele>400.75</ele>
        <time>2012-05-29T14:59:52Z</time>
      </trkpt>
      <trkpt lat="44.36345" lon="4.0915">
        <ele>398</ele>
        <time>2012-05-29T14:59:59Z</time>
      </trkpt>
      <trkpt lat="44.36345" lon="4.09165">
        <ele>397</ele>
        <time>2012-05-29T15:00:09Z</time>
      </trkpt>
      <trkpt lat="44.36342" lon="4.09177">
        <ele>396.75</ele>
        <time>2012-05-29T15:00:19Z</time>
      </trkpt>
      <trkpt lat="44.36341" lon="4.09191">
        <ele>395</ele>
        <time>2012-05-29T15:00:27Z</time>
      </trkpt>
      <trkpt lat="44.36341" lon="4.09203">
        <ele>394</ele>
        <time>2012-05-29T15:00:35Z</time>
      </trkpt>
      <trkpt lat="44.36338" lon="4.09216">
        <ele>392</ele>
        <time>2012-05-29T15:00:48Z</time>
      </trkpt>
      <trkpt lat="44.36338" lon="4.09229">
        <ele>389</ele>
        <time>2012-05-29T15:01:02Z</time>
      </trkpt>
      <trkpt lat="44.36341" lon="4.09241">
        <ele>389.75</ele>
        <time>2012-05-29T15:01:15Z</time>
      </trkpt>
      <trkpt lat="44.36345" lon="4.09253">
        <ele>389.25</ele>
        <time>2012-05-29T15:01:26Z</time>
      </trkpt>
      <trkpt lat="44.36349" lon="4.09264">
        <ele>389</ele>
        <time>2012-05-29T15:01:37Z</time>
      </trkpt>
      <trkpt lat="44.36353" lon="4.09278">
        <ele>386.5</ele>
        <time>2012-05-29T15:01:47Z</time>
      </trkpt>
      <trkpt lat="44.36356" lon="4.0929">
        <ele>386</ele>
        <time>2012-05-29T15:01:55Z</time>
      </trkpt>
      <trkpt lat="44.36353" lon="4.09304">
        <ele>384.25</ele>
        <time>2012-05-29T15:02:10Z</time>
      </trkpt>
      <trkpt lat="44.36346" lon="4.09318">
        <ele>380.75</ele>
        <time>2012-05-29T15:02:13Z</time>
      </trkpt>
      <trkpt lat="44.36339" lon="4.09326">
        <ele>377.25</ele>
        <time>2012-05-29T15:02:23Z</time>
      </trkpt>
      <trkpt lat="44.36347" lon="4.09332">
        <ele>373.75</ele>
        <time>2012-05-29T15:03:19Z</time>
      </trkpt>
      <trkpt lat="44.36353" lon="4.09342">
        <ele>371</ele>
        <time>2012-05-29T15:03:35Z</time>
      </trkpt>
      <trkpt lat="44.3636" lon="4.0935">
        <ele>367.25</ele>
        <time>2012-05-29T15:03:43Z</time>
      </trkpt>
      <trkpt lat="44.36367" lon="4.09359">
        <ele>366</ele>
        <time>2012-05-29T15:03:56Z</time>
      </trkpt>
      <trkpt lat="44.3637" lon="4.09371">
        <ele>364.75</ele>
        <time>2012-05-29T15:04:09Z</time>
      </trkpt>
      <trkpt lat="44.36375" lon="4.09382">
        <ele>363.5</ele>
        <time>2012-05-29T15:04:23Z</time>
      </trkpt>
      <trkpt lat="44.36378" lon="4.09395">
        <ele>363.5</ele>
        <time>2012-05-29T15:04:36Z</time>
      </trkpt>
      <trkpt lat="44.36384" lon="4.09405">
        <ele>358.5</ele>
        <time>2012-05-29T15:04:55Z</time>
      </trkpt>
      <trkpt lat="44.36392" lon="4.09411">
        <ele>355</ele>
        <time>2012-05-29T15:05:10Z</time>
      </trkpt>
      <trkpt lat="44.36399" lon="4.09421">
        <ele>353.75</ele>
        <time>2012-05-29T15:05:19Z</time>
      </trkpt>
      <trkpt lat="44.36399" lon="4.09433">
        <ele>349.5</ele>
        <time>2012-05-29T15:05:29Z</time>
      </trkpt>
      <trkpt lat="44.36394" lon="4.09444">
        <ele>348</ele>
        <time>2012-05-29T15:05:40Z</time>
      </trkpt>
      <trkpt lat="44.36397" lon="4.09457">
        <ele>344</ele>
        <time>2012-05-29T15:06:28Z</time>
      </trkpt>
      <trkpt lat="44.36406" lon="4.09461">
        <ele>342.25</ele>
        <time>2012-05-29T15:06:46Z</time>
      </trkpt>
      <trkpt lat="44.36415" lon="4.09461">
        <ele>341</ele>
        <time>2012-05-29T15:07:03Z</time>
      </trkpt>
      <trkpt lat="44.36423" lon="4.09455">
        <ele>340.5</ele>
        <time>2012-05-29T15:07:13Z</time>
      </trkpt>
      <trkpt lat="44.36432" lon="4.09448">
        <ele>341</ele>
        <time>2012-05-29T15:07:21Z</time>
      </trkpt>
      <trkpt lat="44.36442" lon="4.09446">
        <ele>342.5</ele>
        <time>2012-05-29T15:07:29Z</time>
      </trkpt>
      <trkpt lat="44.36451" lon="4.09448">
        <ele>345</ele>
        <time>2012-05-29T15:07:37Z</time>
      </trkpt>
      <trkpt lat="44.36459" lon="4.09453">
        <ele>345.5</ele>
        <time>2012-05-29T15:07:44Z</time>
      </trkpt>
      <trkpt lat="44.36468" lon="4.09461">
        <ele>346.75</ele>
        <time>2012-05-29T15:07:58Z</time>
      </trkpt>
      <trkpt lat="44.36478" lon="4.09458">
        <ele>346</ele>
        <time>2012-05-29T15:08:06Z</time>
      </trkpt>
      <trkpt lat="44.36487" lon="4.09455">
        <ele>344.25</ele>
        <time>2012-05-29T15:08:12Z</time>
      </trkpt>
      <trkpt lat="44.36496" lon="4.09452">
        <ele>342.75</ele>
        <time>2012-05-29T15:08:18Z</time>
      </trkpt>
      <trkpt lat="44.36506" lon="4.09448">
        <ele>340.5</ele>
        <time>2012-05-29T15:08:26Z</time>
      </trkpt>
      <trkpt lat="44.36514" lon="4.09441">
        <ele>339</ele>
        <time>2012-05-29T15:08:34Z</time>
      </trkpt>
      <trkpt lat="44.36524" lon="4.09438">
        <ele>337.5</ele>
        <time>2012-05-29T15:08:41Z</time>
      </trkpt>
      <trkpt lat="44.36533" lon="4.09434">
        <ele>336</ele>
        <time>2012-05-29T15:08:49Z</time>
      </trkpt>
      <trkpt lat="44.36542" lon="4.09428">
        <ele>336</ele>
        <time>2012-05-29T15:08:56Z</time>
      </trkpt>
      <trkpt lat="44.36549" lon="4.0942">
        <ele>337.75</ele>
        <time>2012-05-29T15:09:07Z</time>
      </trkpt>
      <trkpt lat="44.36558" lon="4.09419">
        <ele>337.75</ele>
        <time>2012-05-29T15:09:14Z</time>
      </trkpt>
      <trkpt lat="44.36567" lon="4.0942">
        <ele>338</ele>
        <time>2012-05-29T15:09:20Z</time>
      </trkpt>
      <trkpt lat="44.36575" lon="4.0942">
        <ele>332</ele>
        <time>2012-05-29T15:09:31Z</time>
      </trkpt>
    </trkseg>
  </trk>
</gpx>